Observation data for Palo Duro Canyon State Park Rim on 11/17/2019      Previous  Date       Current Mesonet Observations  Soil Data  Daily Summary Page  Observations in Plain Language
KPD1 170600Z 34005KT 09/01 A30 RMK A01 T00920007  RH  055%=      5-min Rain = 0
KPD1 170601Z 35006KT 09/01 A30 RMK A01 T00920007  RH  055%=      5-min Rain = 0
KPD1 170602Z 35007KT 09/01 A30 RMK A01 T00920007  RH  055%=      5-min Rain = 0
KPD1 170603Z 35006KT 09/01 A30 RMK A01 T00920007  RH  055%=      5-min Rain = 0
KPD1 170604Z 35008KT 09/01 A30 RMK A01 T00920007  RH  055%=      5-min Rain = 0
KPD1 170605Z 35007KT 09/01 A30 RMK A01 T00920007  RH  055%=      5-min Rain = 0
KPD1 170606Z 35008KT 09/01 A30 RMK A01 T00920007  RH  055%=      5-min Rain = 0
KPD1 170607Z 35007KT 09/01 A30 RMK A01 T00920008  RH  055%=      5-min Rain = 0
KPD1 170608Z 35008KT 09/01 A30 RMK A01 T00920007  RH  055%=      5-min Rain = 0
KPD1 170609Z 35008KT 09/01 A30 RMK A01 T00920008  RH  056%=      5-min Rain = 0
KPD1 170610Z 35008KT 09/01 A30 RMK A01 T00920008  RH  056%=      5-min Rain = 0
KPD1 170611Z 35008KT 09/01 A30 RMK A01 T00910008  RH  056%=      5-min Rain = 0
KPD1 170612Z 35009KT 09/01 A30 RMK A01 T00920008  RH  056%=      5-min Rain = 0
KPD1 170613Z 35009KT 09/01 A30 RMK A01 T00920008  RH  056%=      5-min Rain = 0
KPD1 170614Z 35009KT 09/01 A2999 RMK A01 T00930008  RH  056%=      5-min Rain = 0
KPD1 170615Z 35010KT 09/01 A2999 RMK A01 T00930008  RH  055%=      5-min Rain = 0
KPD1 170616Z 36011KT 09/01 A2999 RMK A01 T00940009  RH  055%=      5-min Rain = 0
KPD1 170617Z 35011KT 10/01 A2999 RMK A01 T00950009  RH  055%=      5-min Rain = 0
KPD1 170618Z 35011KT 10/01 A2999 RMK A01 T00960009  RH  054%=      5-min Rain = 0
KPD1 170619Z 35011KT 10/01 A2999 RMK A01 T00970009  RH  054%=      5-min Rain = 0
KPD1 170620Z 35011KT 10/01 A2999 RMK A01 T00960009  RH  054%=      5-min Rain = 0
KPD1 170621Z 35012KT 10/01 A2999 RMK A01 T00960009  RH  054%=      5-min Rain = 0
KPD1 170622Z 35013KT 10/01 A2999 RMK A01 T00970009  RH  054%=      5-min Rain = 0
KPD1 170623Z 35011KT 10/01 A2999 RMK A01 T00990009  RH  054%=      5-min Rain = 0
KPD1 170624Z 35011KT 10/01 A2999 RMK A01 T00990009  RH  054%=      5-min Rain = 0
KPD1 170625Z 35011KT 10/01 A2999 RMK A01 T00990009  RH  053%=      5-min Rain = 0
KPD1 170626Z 35011KT 10/01 A2999 RMK A01 T00990008  RH  053%=      5-min Rain = 0
KPD1 170627Z 35011KT 10/01 A30 RMK A01 T00990009  RH  053%=      5-min Rain = 0
KPD1 170628Z 35011G16KT 10/01 A30 RMK A01 T00980008  RH  053%=      5-min Rain = 0
KPD1 170629Z 35009KT 10/01 A30 RMK A01 T00990008  RH  053%=      5-min Rain = 0
KPD1 170630Z 35010G15KT 10/01 A2999 RMK A01 T00990008  RH  053%=      5-min Rain = 0
KPD1 170631Z 35011G16KT 10/01 A2999 RMK A01 T00990008  RH  053%=      5-min Rain = 0
KPD1 170632Z 34012KT 10/01 A2999 RMK A01 T01000008  RH  053%=      5-min Rain = 0
KPD1 170633Z 35010KT 10/01 A2999 RMK A01 T01000007  RH  053%=      5-min Rain = 0
KPD1 170634Z 35011KT 10/01 A2999 RMK A01 T01000008  RH  053%=      5-min Rain = 0
KPD1 170635Z 35010KT 10/01 A2999 RMK A01 T00990008  RH  053%=      5-min Rain = 0
KPD1 170636Z 35012KT 10/01 A2999 RMK A01 T00990008  RH  053%=      5-min Rain = 0
KPD1 170637Z 34012KT 10/01 A2999 RMK A01 T00980008  RH  053%=      5-min Rain = 0
KPD1 170638Z 34013KT 10/01 A2999 RMK A01 T00990008  RH  053%=      5-min Rain = 0
KPD1 170639Z 34014KT 10/01 A2999 RMK A01 T00990008  RH  053%=      5-min Rain = 0
KPD1 170640Z 35011KT 10/01 A2999 RMK A01 T01000008  RH  053%=      5-min Rain = 0
KPD1 170641Z 34011KT 10/01 A2999 RMK A01 T01000008  RH  053%=      5-min Rain = 0
KPD1 170642Z 34013KT 10/01 A30 RMK A01 T01000008  RH  053%=      5-min Rain = 0
KPD1 170643Z 34013KT 10/01 A30 RMK A01 T01000008  RH  053%=      5-min Rain = 0
KPD1 170644Z 34013KT 10/01 A30 RMK A01 T01000008  RH  053%=      5-min Rain = 0
KPD1 170645Z 33015KT 10/01 A30 RMK A01 T01010008  RH  052%=      5-min Rain = 0
KPD1 170646Z 34011KT 10/01 A30 RMK A01 T01020008  RH  052%=      5-min Rain = 0
KPD1 170647Z 33013G18KT 10/01 A30 RMK A01 T01030008  RH  052%=      5-min Rain = 0
KPD1 170648Z 33014KT 10/01 A30 RMK A01 T01030008  RH  052%=      5-min Rain = 0
KPD1 170649Z 33013KT 10/01 A30 RMK A01 T01030008  RH  052%=      5-min Rain = 0
KPD1 170650Z 34014KT 10/01 A30 RMK A01 T01030008  RH  052%=      5-min Rain = 0
KPD1 170651Z 34013KT 10/01 A30 RMK A01 T01030008  RH  052%=      5-min Rain = 0
KPD1 170652Z 34012KT 10/01 A30 RMK A01 T01030009  RH  052%=      5-min Rain = 0
KPD1 170653Z 34013KT 10/01 A30 RMK A01 T01030009  RH  052%=      5-min Rain = 0
KPD1 170654Z 34014KT 10/01 A30 RMK A01 T01030009  RH  052%=      5-min Rain = 0
KPD1 170655Z 34014G19KT 10/01 A30 RMK A01 T01030009  RH  052%=      5-min Rain = 0
KPD1 170656Z 34017G23KT 10/01 A30 RMK A01 T01040008  RH  051%=      5-min Rain = 0
KPD1 170657Z 35015G22KT 11/01 A30 RMK A01 T01050007  RH  051%=      5-min Rain = 0
KPD1 170658Z 34015G20KT 11/01 A30 RMK A01 T01070007  RH  050%=      5-min Rain = 0
KPD1 170659Z 34018KT 11/01 A30 RMK A01 T01070006  RH  050%=      5-min Rain = 0
KPD1 170700Z 34014G19KT 11/01 A30 RMK A01 T01070005  RH  050%=      5-min Rain = 0
KPD1 170701Z 34016KT 11/01 A30 RMK A01 T01060005  RH  050%=      5-min Rain = 0
KPD1 170702Z 34018G24KT 11/01 A30 RMK A01 T01060005  RH  050%=      5-min Rain = 0
KPD1 170703Z 35017KT 11/00 A30 RMK A01 T01060004  RH  049%=      5-min Rain = 0
KPD1 170704Z 35017KT 11/00 A3001 RMK A01 T01060002  RH  049%=      5-min Rain = 0
KPD1 170705Z 35014KT 11/00 A3001 RMK A01 T01070002  RH  048%=      5-min Rain = 0
KPD1 170706Z 35019G26KT 11/00 A3001 RMK A01 T01070002  RH  048%=      5-min Rain = 0
KPD1 170707Z 35021KT 11/00 A3001 RMK A01 T01070000  RH  048%=      5-min Rain = 0
KPD1 170708Z 34021KT 11/00 A3001 RMK A01 T010900-0  RH  047%=      5-min Rain = 0
KPD1 170709Z 34020G27KT 11/M00 A3001 RMK A01 T01101002  RH  046%=      5-min Rain = 0
KPD1 170710Z 35021G26KT 11/M00 A3001 RMK A01 T01111003  RH  045%=      5-min Rain = 0
KPD1 170711Z 35018G26KT 11/M00 A3001 RMK A01 T01121004  RH  045%=      5-min Rain = 0
KPD1 170712Z 35017G22KT 11/M01 A3001 RMK A01 T01121005  RH  045%=      5-min Rain = 0
KPD1 170713Z 34020KT 11/M01 A3001 RMK A01 T01111006  RH  044%=      5-min Rain = 0
KPD1 170714Z 35020G25KT 11/M01 A3001 RMK A01 T01111007  RH  044%=      5-min Rain = 0
KPD1 170715Z 35019KT 11/M01 A3001 RMK A01 T01111008  RH  044%=      5-min Rain = 0
KPD1 170716Z 36018G27KT 11/M01 A3001 RMK A01 T01111009  RH  043%=      5-min Rain = 0
KPD1 170717Z 35018G24KT 11/M01 A3001 RMK A01 T01111011  RH  043%=      5-min Rain = 0
KPD1 170718Z 35022KT 11/M01 A3001 RMK A01 T01111012  RH  042%=      5-min Rain = 0
KPD1 170719Z 35018G26KT 11/M01 A3001 RMK A01 T01111013  RH  042%=      5-min Rain = 0
KPD1 170720Z 35023G30KT 11/M01 A3001 RMK A01 T01111013  RH  042%=      5-min Rain = 0
KPD1 170721Z 35023G29KT 11/M01 A3002 RMK A01 T01111014  RH  042%=      5-min Rain = 0
KPD1 170722Z 35021KT 11/M01 A3002 RMK A01 T01111014  RH  042%=      5-min Rain = 0
KPD1 170723Z 36021G26KT 11/M02 A3002 RMK A01 T01111015  RH  041%=      5-min Rain = 0
KPD1 170724Z 35017G22KT 11/M02 A3002 RMK A01 T01111015  RH  042%=      5-min Rain = 0
KPD1 170725Z 35020G28KT 11/M01 A3002 RMK A01 T01101014  RH  042%=      5-min Rain = 0
KPD1 170726Z 35022G27KT 11/M02 A3002 RMK A01 T01101015  RH  042%=      5-min Rain = 0
KPD1 170727Z 36019G24KT 11/M02 A3002 RMK A01 T01091015  RH  042%=      5-min Rain = 0
KPD1 170728Z 36020KT 11/M02 A3002 RMK A01 T01091015  RH  042%=      5-min Rain = 0
KPD1 170729Z 34017KT 11/M02 A3002 RMK A01 T01091015  RH  042%=      5-min Rain = 0
KPD1 170730Z 35021G28KT 11/M02 A3002 RMK A01 T01081016  RH  042%=      5-min Rain = 0
KPD1 170731Z 35019G27KT 11/M02 A3002 RMK A01 T01081016  RH  042%=      5-min Rain = 0
KPD1 170732Z 36020KT 11/M02 A3003 RMK A01 T01081016  RH  042%=      5-min Rain = 0
KPD1 170733Z 35016G26KT 11/M02 A3003 RMK A01 T01081016  RH  042%=      5-min Rain = 0
KPD1 170734Z 35021G27KT 11/M02 A3003 RMK A01 T01071016  RH  042%=      5-min Rain = 0
KPD1 170735Z 35019G25KT 11/M02 A3003 RMK A01 T01071016  RH  042%=      5-min Rain = 0
KPD1 170736Z 35020G25KT 11/M02 A3003 RMK A01 T01071017  RH  042%=      5-min Rain = 0
KPD1 170737Z 35020G30KT 11/M02 A3003 RMK A01 T01071017  RH  042%=      5-min Rain = 0
KPD1 170738Z 35021G31KT 11/M02 A3003 RMK A01 T01071017  RH  042%=      5-min Rain = 0
KPD1 170739Z 35020G25KT 11/M02 A3003 RMK A01 T01071018  RH  042%=      5-min Rain = 0
KPD1 170740Z 35021KT 11/M02 A3003 RMK A01 T01071018  RH  042%=      5-min Rain = 0
KPD1 170741Z 35017KT 11/M02 A3004 RMK A01 T01061018  RH  042%=      5-min Rain = 0
KPD1 170742Z 35020G25KT 11/M02 A3004 RMK A01 T01061018  RH  042%=      5-min Rain = 0
KPD1 170743Z 35017G22KT 11/M02 A3004 RMK A01 T01061019  RH  042%=      5-min Rain = 0
KPD1 170744Z 35017G22KT 11/M02 A3004 RMK A01 T01061018  RH  042%=      5-min Rain = 0
KPD1 170745Z 35021G27KT 11/M02 A3004 RMK A01 T01061019  RH  042%=      5-min Rain = 0
KPD1 170746Z 34020G26KT 11/M02 A3003 RMK A01 T01051020  RH  042%=      5-min Rain = 0
KPD1 170747Z 36018G23KT 11/M02 A3003 RMK A01 T01051020  RH  042%=      5-min Rain = 0
KPD1 170748Z 35021G27KT 11/M02 A3003 RMK A01 T01051020  RH  042%=      5-min Rain = 0
KPD1 170749Z 35020G27KT 11/M02 A3003 RMK A01 T01051020  RH  042%=      5-min Rain = 0
KPD1 170750Z 35018KT 11/M02 A3003 RMK A01 T01051020  RH  042%=      5-min Rain = 0
KPD1 170751Z 35022G28KT 10/M02 A3004 RMK A01 T01041021  RH  042%=      5-min Rain = 0
KPD1 170752Z 35018G23KT 10/M02 A3004 RMK A01 T01041021  RH  042%=      5-min Rain = 0
KPD1 170753Z 35018G24KT 10/M02 A3004 RMK A01 T01041021  RH  042%=      5-min Rain = 0
KPD1 170754Z 35021G26KT 10/M02 A3004 RMK A01 T01041021  RH  042%=      5-min Rain = 0
KPD1 170755Z 35017G22KT 10/M02 A3004 RMK A01 T01041021  RH  042%=      5-min Rain = 0
KPD1 170756Z 35020KT 10/M02 A3004 RMK A01 T01031021  RH  042%=      5-min Rain = 0
KPD1 170757Z 35019KT 10/M02 A3004 RMK A01 T01031022  RH  042%=      5-min Rain = 0
KPD1 170758Z 35019G25KT 10/M02 A3004 RMK A01 T01031022  RH  042%=      5-min Rain = 0
KPD1 170759Z 36018G25KT 10/M02 A3004 RMK A01 T01031022  RH  041%=      5-min Rain = 0
KPD1 170800Z 36017G22KT 10/M02 A3004 RMK A01 T01031022  RH  041%=      5-min Rain = 0
KPD1 170801Z 35017G22KT 10/M02 A3004 RMK A01 T01031022  RH  041%=      5-min Rain = 0
KPD1 170802Z 36019G25KT 10/M02 A3004 RMK A01 T01031022  RH  042%=      5-min Rain = 0
KPD1 170803Z 35021KT 10/M02 A3004 RMK A01 T01031022  RH  042%=      5-min Rain = 0
KPD1 170804Z 35018KT 10/M02 A3004 RMK A01 T01031022  RH  041%=      5-min Rain = 0
KPD1 170805Z 35018KT 10/M02 A3004 RMK A01 T01031022  RH  041%=      5-min Rain = 0
KPD1 170806Z 36019G25KT 10/M02 A3004 RMK A01 T01031022  RH  041%=      5-min Rain = 0
KPD1 170807Z 35017KT 10/M02 A3005 RMK A01 T01031023  RH  041%=      5-min Rain = 0
KPD1 170808Z 35016KT 10/M02 A3005 RMK A01 T01031022  RH  042%=      5-min Rain = 0
KPD1 170809Z 35018G23KT 10/M02 A3005 RMK A01 T01021022  RH  042%=      5-min Rain = 0
KPD1 170810Z 35017G22KT 10/M02 A3005 RMK A01 T01021022  RH  042%=      5-min Rain = 0
KPD1 170811Z 35020G26KT 10/M02 A3005 RMK A01 T01021022  RH  042%=      5-min Rain = 0
KPD1 170812Z 35017KT 10/M02 A3005 RMK A01 T01021022  RH  042%=      5-min Rain = 0
KPD1 170813Z 35019G24KT 10/M02 A3005 RMK A01 T01021022  RH  042%=      5-min Rain = 0
KPD1 170814Z 35017G22KT 10/M02 A3005 RMK A01 T01021022  RH  042%=      5-min Rain = 0
KPD1 170815Z 35021G28KT 10/M02 A3005 RMK A01 T01011022  RH  042%=      5-min Rain = 0
KPD1 170816Z 35020G26KT 10/M02 A3005 RMK A01 T01011022  RH  042%=      5-min Rain = 0
KPD1 170817Z 35018G23KT 10/M02 A3005 RMK A01 T01011023  RH  042%=      5-min Rain = 0
KPD1 170818Z 36021G26KT 10/M02 A3005 RMK A01 T01011023  RH  042%=      5-min Rain = 0
KPD1 170819Z 36019G26KT 10/M02 A3006 RMK A01 T01011022  RH  042%=      5-min Rain = 0
KPD1 170820Z 35021G26KT 10/M02 A3005 RMK A01 T01011022  RH  042%=      5-min Rain = 0
KPD1 170821Z 35018G23KT 10/M02 A3006 RMK A01 T01011022  RH  042%=      5-min Rain = 0
KPD1 170822Z 35018G23KT 10/M02 A3006 RMK A01 T01011022  RH  042%=      5-min Rain = 0
KPD1 170823Z 35018G27KT 10/M02 A3006 RMK A01 T01001022  RH  042%=      5-min Rain = 0
KPD1 170824Z 36021KT 10/M02 A3006 RMK A01 T01001022  RH  042%=      5-min Rain = 0
KPD1 170825Z 36021KT 10/M02 A3006 RMK A01 T01001022  RH  042%=      5-min Rain = 0
KPD1 170826Z 35018G26KT 10/M02 A3006 RMK A01 T01001022  RH  043%=      5-min Rain = 0
KPD1 170827Z 35017G25KT 10/M02 A3006 RMK A01 T00991022  RH  043%=      5-min Rain = 0
KPD1 170828Z 35020KT 10/M02 A3006 RMK A01 T00991021  RH  043%=      5-min Rain = 0
KPD1 170829Z 36021KT 10/M02 A3006 RMK A01 T00991021  RH  043%=      5-min Rain = 0
KPD1 170830Z 35016G22KT 10/M02 A3006 RMK A01 T00981022  RH  043%=      5-min Rain = 0
KPD1 170831Z 35018KT 10/M02 A3006 RMK A01 T00981021  RH  043%=      5-min Rain = 0
KPD1 170832Z 35014KT 10/M02 A3006 RMK A01 T00981021  RH  043%=      5-min Rain = 0
KPD1 170833Z 35016KT 10/M02 A3006 RMK A01 T00971021  RH  044%=      5-min Rain = 0
KPD1 170834Z 35019G26KT 10/M02 A3006 RMK A01 T00971020  RH  044%=      5-min Rain = 0
KPD1 170835Z 34017G24KT 10/M02 A3006 RMK A01 T00971020  RH  044%=      5-min Rain = 0
KPD1 170836Z 36020G26KT 10/M02 A3006 RMK A01 T00961020  RH  044%=      5-min Rain = 0
KPD1 170837Z 35019G25KT 10/M02 A3006 RMK A01 T00961020  RH  044%=      5-min Rain = 0
KPD1 170838Z 35019G25KT 10/M02 A3007 RMK A01 T00951020  RH  044%=      5-min Rain = 0
KPD1 170839Z 36019G25KT 10/M02 A3007 RMK A01 T00951020  RH  045%=      5-min Rain = 0
KPD1 170840Z 35017G23KT 10/M02 A3007 RMK A01 T00951019  RH  045%=      5-min Rain = 0
KPD1 170841Z 35016G21KT 09/M02 A3007 RMK A01 T00941019  RH  045%=      5-min Rain = 0
KPD1 170842Z 35019G24KT 09/M02 A3007 RMK A01 T00941018  RH  045%=      5-min Rain = 0
KPD1 170843Z 35019KT 09/M02 A3007 RMK A01 T00931018  RH  046%=      5-min Rain = 0
KPD1 170844Z 36017G24KT 09/M02 A3007 RMK A01 T00931017  RH  046%=      5-min Rain = 0
KPD1 170845Z 35020G27KT 09/M02 A3007 RMK A01 T00921018  RH  046%=      5-min Rain = 0
KPD1 170846Z 35021G27KT 09/M02 A3007 RMK A01 T00921017  RH  046%=      5-min Rain = 0
KPD1 170847Z 35019G27KT 09/M02 A3007 RMK A01 T00921017  RH  047%=      5-min Rain = 0
KPD1 170848Z 36017G22KT 09/M02 A3007 RMK A01 T00921016  RH  047%=      5-min Rain = 0
KPD1 170849Z 00019G24KT 09/M02 A3007 RMK A01 T00911016  RH  047%=      5-min Rain = 0
KPD1 170850Z 35016G21KT 09/M02 A3007 RMK A01 T00911016  RH  047%=      5-min Rain = 0
KPD1 170851Z 35021G27KT 09/M02 A3007 RMK A01 T00901016  RH  047%=      5-min Rain = 0
KPD1 170852Z 35017G23KT 09/M02 A3007 RMK A01 T00901015  RH  048%=      5-min Rain = 0
KPD1 170853Z 36020G26KT 09/M02 A3007 RMK A01 T00891015  RH  048%=      5-min Rain = 0
KPD1 170854Z 36022G27KT 09/M02 A3007 RMK A01 T00891015  RH  048%=      5-min Rain = 0
KPD1 170855Z 35019G24KT 09/M02 A3008 RMK A01 T00891015  RH  048%=      5-min Rain = 0
KPD1 170856Z 36017G23KT 09/M01 A3008 RMK A01 T00891014  RH  048%=      5-min Rain = 0
KPD1 170857Z 35016G21KT 09/M01 A3008 RMK A01 T00881014  RH  049%=      5-min Rain = 0
KPD1 170858Z 35023G28KT 09/M01 A3008 RMK A01 T00881014  RH  049%=      5-min Rain = 0
KPD1 170859Z 35018G23KT 09/M01 A3008 RMK A01 T00881014  RH  049%=      5-min Rain = 0
KPD1 170900Z 35017G22KT 09/M01 A3008 RMK A01 T00881014  RH  049%=      5-min Rain = 0
KPD1 170901Z 35018G23KT 09/M01 A3008 RMK A01 T00881013  RH  049%=      5-min Rain = 0
KPD1 170902Z 36019KT 09/M01 A3008 RMK A01 T00871013  RH  049%=      5-min Rain = 0
KPD1 170903Z 35020KT 09/M01 A3008 RMK A01 T00871012  RH  050%=      5-min Rain = 0
KPD1 170904Z 35014G19KT 09/M01 A3008 RMK A01 T00871012  RH  050%=      5-min Rain = 0
KPD1 170905Z 36013KT 09/M01 A3008 RMK A01 T00871012  RH  050%=      5-min Rain = 0
KPD1 170906Z 35015KT 09/M01 A3008 RMK A01 T00861012  RH  050%=      5-min Rain = 0
KPD1 170907Z 35017KT 09/M01 A3008 RMK A01 T00851012  RH  050%=      5-min Rain = 0
KPD1 170908Z 35018G24KT 09/M01 A3008 RMK A01 T00861012  RH  050%=      5-min Rain = 0
KPD1 170909Z 36018G27KT 09/M01 A3008 RMK A01 T00861012  RH  050%=      5-min Rain = 0
KPD1 170910Z 35019KT 09/M01 A3008 RMK A01 T00861012  RH  050%=      5-min Rain = 0
KPD1 170911Z 36014G21KT 09/M01 A3008 RMK A01 T00851012  RH  050%=      5-min Rain = 0
KPD1 170912Z 35017G23KT 09/M01 A3008 RMK A01 T00851012  RH  051%=      5-min Rain = 0
KPD1 170913Z 00014G25KT 09/M01 A3008 RMK A01 T00851012  RH  051%=      5-min Rain = 0
KPD1 170914Z 36018KT 08/M01 A3008 RMK A01 T00841012  RH  051%=      5-min Rain = 0
KPD1 170915Z 00014KT 08/M01 A3007 RMK A01 T00841012  RH  051%=      5-min Rain = 0
KPD1 170916Z 35017KT 08/M01 A3007 RMK A01 T00841012  RH  051%=      5-min Rain = 0
KPD1 170917Z 36016KT 08/M01 A3007 RMK A01 T00841011  RH  051%=      5-min Rain = 0
KPD1 170918Z 36016KT 08/M01 A3007 RMK A01 T00831011  RH  051%=      5-min Rain = 0
KPD1 170919Z 35014G21KT 08/M01 A3008 RMK A01 T00831011  RH  051%=      5-min Rain = 0
KPD1 170920Z 35018KT 08/M01 A3008 RMK A01 T00821011  RH  052%=      5-min Rain = 0
KPD1 170921Z 35017KT 08/M01 A3008 RMK A01 T00831011  RH  052%=      5-min Rain = 0
KPD1 170922Z 35017KT 08/M01 A3008 RMK A01 T00831011  RH  052%=      5-min Rain = 0
KPD1 170923Z 35018KT 08/M01 A3008 RMK A01 T00831011  RH  052%=      5-min Rain = 0
KPD1 170924Z 35019G25KT 08/M01 A3008 RMK A01 T00821011  RH  052%=      5-min Rain = 0
KPD1 170925Z 35016G21KT 08/M01 A3008 RMK A01 T00821011  RH  052%=      5-min Rain = 0
KPD1 170926Z 36017G22KT 08/M01 A3008 RMK A01 T00821011  RH  052%=      5-min Rain = 0
KPD1 170927Z 35018G25KT 08/M01 A3008 RMK A01 T00821011  RH  052%=      5-min Rain = 0
KPD1 170928Z 35017G26KT 08/M01 A3008 RMK A01 T00811011  RH  052%=      5-min Rain = 0
KPD1 170929Z 36020G25KT 08/M01 A3008 RMK A01 T00821010  RH  052%=      5-min Rain = 0
KPD1 170930Z 35019G24KT 08/M01 A3008 RMK A01 T00811010  RH  052%=      5-min Rain = 0
KPD1 170931Z 36014G19KT 08/M01 A3008 RMK A01 T00811010  RH  052%=      5-min Rain = 0
KPD1 170932Z 00015G21KT 08/M01 A3008 RMK A01 T00811010  RH  053%=      5-min Rain = 0
KPD1 170933Z 35015G20KT 08/M01 A3008 RMK A01 T00801011  RH  053%=      5-min Rain = 0
KPD1 170934Z 35021KT 08/M01 A3008 RMK A01 T00791010  RH  053%=      5-min Rain = 0
KPD1 170935Z 35017G22KT 08/M01 A3008 RMK A01 T00801010  RH  053%=      5-min Rain = 0
KPD1 170936Z 36017KT 08/M01 A3008 RMK A01 T00791010  RH  053%=      5-min Rain = 0
KPD1 170937Z 35020G26KT 08/M01 A3008 RMK A01 T00791010  RH  053%=      5-min Rain = 0
KPD1 170938Z 36016G21KT 08/M01 A3008 RMK A01 T00791009  RH  054%=      5-min Rain = 0
KPD1 170939Z 35019G25KT 08/M01 A3008 RMK A01 T00791010  RH  054%=      5-min Rain = 0
KPD1 170940Z 35017G22KT 08/M01 A3008 RMK A01 T00791009  RH  054%=      5-min Rain = 0
KPD1 170941Z 35017G24KT 08/M01 A3008 RMK A01 T00781009  RH  054%=      5-min Rain = 0
KPD1 170942Z 35019G24KT 08/M01 A3008 RMK A01 T00781010  RH  054%=      5-min Rain = 0
KPD1 170943Z 35019G25KT 08/M01 A3008 RMK A01 T00781009  RH  054%=      5-min Rain = 0
KPD1 170944Z 36017G23KT 08/M01 A3008 RMK A01 T00781009  RH  054%=      5-min Rain = 0
KPD1 170945Z 35022G28KT 08/M01 A3008 RMK A01 T00781009  RH  054%=      5-min Rain = 0
KPD1 170946Z 35021KT 08/M01 A3008 RMK A01 T00781008  RH  054%=      5-min Rain = 0
KPD1 170947Z 35019G24KT 08/M01 A3008 RMK A01 T00781008  RH  055%=      5-min Rain = 0
KPD1 170948Z 35019G24KT 08/M01 A3008 RMK A01 T00771008  RH  055%=      5-min Rain = 0
KPD1 170949Z 35015G21KT 08/M01 A3008 RMK A01 T00771009  RH  055%=      5-min Rain = 0
KPD1 170950Z 35020KT 08/M01 A3008 RMK A01 T00771008  RH  055%=      5-min Rain = 0
KPD1 170951Z 36018G25KT 08/M01 A3008 RMK A01 T00761008  RH  055%=      5-min Rain = 0
KPD1 170952Z 36018G25KT 08/M01 A3008 RMK A01 T00761008  RH  055%=      5-min Rain = 0
KPD1 170953Z 36019G25KT 08/M01 A3008 RMK A01 T00761008  RH  055%=      5-min Rain = 0
KPD1 170954Z 35017G26KT 08/M01 A3008 RMK A01 T00761007  RH  055%=      5-min Rain = 0
KPD1 170955Z 36018KT 08/M01 A3009 RMK A01 T00761007  RH  056%=      5-min Rain = 0
KPD1 170956Z 35017G23KT 08/M01 A3009 RMK A01 T00761007  RH  056%=      5-min Rain = 0
KPD1 170957Z 36019G24KT 08/M01 A3009 RMK A01 T00751007  RH  056%=      5-min Rain = 0
KPD1 170958Z 35021G27KT 08/M01 A3009 RMK A01 T00751007  RH  056%=      5-min Rain = 0
KPD1 170959Z 35019G25KT 08/M01 A3009 RMK A01 T00751007  RH  056%=      5-min Rain = 0
KPD1 171000Z 36018G24KT 08/M01 A3009 RMK A01 T00751007  RH  056%=      5-min Rain = 0
KPD1 171001Z 36020G26KT 08/M01 A3009 RMK A01 T00751007  RH  056%=      5-min Rain = 0
KPD1 171002Z 35019G24KT 07/M01 A3008 RMK A01 T00741007  RH  056%=      5-min Rain = 0
KPD1 171003Z 35018KT 07/M01 A3008 RMK A01 T00741006  RH  057%=      5-min Rain = 0
KPD1 171004Z 35018G24KT 08/M01 A3009 RMK A01 T00751005  RH  057%=      5-min Rain = 0
KPD1 171005Z 36018G23KT 07/M01 A3009 RMK A01 T00741006  RH  057%=      5-min Rain = 0
KPD1 171006Z 36015KT 07/M01 A3009 RMK A01 T00741006  RH  057%=      5-min Rain = 0
KPD1 171007Z 35016G21KT 07/M01 A3009 RMK A01 T00731006  RH  057%=      5-min Rain = 0
KPD1 171008Z 00017G24KT 07/M01 A3009 RMK A01 T00721006  RH  058%=      5-min Rain = 0
KPD1 171009Z 00014G19KT 07/M01 A3009 RMK A01 T00721006  RH  058%=      5-min Rain = 0
KPD1 171010Z 36016G21KT 07/M01 A3009 RMK A01 T00721005  RH  058%=      5-min Rain = 0
KPD1 171011Z 35016G23KT 07/M01 A3009 RMK A01 T00721005  RH  058%=      5-min Rain = 0
KPD1 171012Z 35017G25KT 07/M01 A3009 RMK A01 T00721005  RH  058%=      5-min Rain = 0
KPD1 171013Z 35018G24KT 07/M01 A3009 RMK A01 T00721005  RH  058%=      5-min Rain = 0
KPD1 171014Z 36017G26KT 07/M01 A3009 RMK A01 T00721005  RH  058%=      5-min Rain = 0
KPD1 171015Z 00019G24KT 07/M01 A3009 RMK A01 T00721005  RH  058%=      5-min Rain = 0
KPD1 171016Z 36017G23KT 07/M01 A3009 RMK A01 T00721005  RH  058%=      5-min Rain = 0
KPD1 171017Z 35017G22KT 07/M00 A3009 RMK A01 T00721004  RH  059%=      5-min Rain = 0
KPD1 171018Z 36015G20KT 07/M00 A3009 RMK A01 T00711004  RH  059%=      5-min Rain = 0
KPD1 171019Z 35016KT 07/M00 A3009 RMK A01 T00711004  RH  059%=      5-min Rain = 0
KPD1 171020Z 36019G24KT 07/M00 A3009 RMK A01 T00711004  RH  059%=      5-min Rain = 0
KPD1 171021Z 36017G22KT 07/M00 A3009 RMK A01 T00711004  RH  059%=      5-min Rain = 0
KPD1 171022Z 36016G22KT 07/M00 A3009 RMK A01 T00711004  RH  059%=      5-min Rain = 0
KPD1 171023Z 00016KT 07/M00 A3009 RMK A01 T00701004  RH  059%=      5-min Rain = 0
KPD1 171024Z 35019G25KT 07/M00 A3009 RMK A01 T00701004  RH  059%=      5-min Rain = 0
KPD1 171025Z 36014KT 07/M00 A3009 RMK A01 T00701004  RH  059%=      5-min Rain = 0
KPD1 171026Z 35013KT 07/M00 A3009 RMK A01 T00701003  RH  059%=      5-min Rain = 0
KPD1 171027Z 00017KT 07/M00 A3009 RMK A01 T00701003  RH  060%=      5-min Rain = 0
KPD1 171028Z 36016KT 07/M00 A3009 RMK A01 T00691003  RH  060%=      5-min Rain = 0
KPD1 171029Z 01015KT 07/M00 A3009 RMK A01 T00701003  RH  060%=      5-min Rain = 0
KPD1 171030Z 35020G28KT 07/M00 A3009 RMK A01 T00691003  RH  060%=      5-min Rain = 0
KPD1 171031Z 36017KT 07/M00 A3009 RMK A01 T00691003  RH  060%=      5-min Rain = 0
KPD1 171032Z 35019KT 07/M00 A301 RMK A01 T00691003  RH  060%=      5-min Rain = 0
KPD1 171033Z 36019KT 07/M00 A301 RMK A01 T00691003  RH  060%=      5-min Rain = 0
KPD1 171034Z 00016G21KT 07/M00 A301 RMK A01 T00691003  RH  060%=      5-min Rain = 0
KPD1 171035Z 36017G22KT 07/M00 A301 RMK A01 T00691003  RH  060%=      5-min Rain = 0
KPD1 171036Z 35014G21KT 07/M00 A301 RMK A01 T00691002  RH  060%=      5-min Rain = 0
KPD1 171037Z 36016G23KT 07/M00 A301 RMK A01 T00691002  RH  060%=      5-min Rain = 0
KPD1 171038Z 35019G26KT 07/M00 A301 RMK A01 T00691002  RH  061%=      5-min Rain = 0
KPD1 171039Z 00020G27KT 07/M00 A301 RMK A01 T00681002  RH  061%=      5-min Rain = 0
KPD1 171040Z 35015G23KT 07/M00 A301 RMK A01 T00691002  RH  061%=      5-min Rain = 0
KPD1 171041Z 36015KT 07/M00 A301 RMK A01 T00691002  RH  061%=      5-min Rain = 0
KPD1 171042Z 35014KT 07/M00 A301 RMK A01 T00681002  RH  061%=      5-min Rain = 0
KPD1 171043Z 00018G28KT 07/M00 A301 RMK A01 T00671003  RH  061%=      5-min Rain = 0
KPD1 171044Z 35016G22KT 07/M00 A301 RMK A01 T00671002  RH  061%=      5-min Rain = 0
KPD1 171045Z 36016KT 07/M00 A301 RMK A01 T00681001  RH  061%=      5-min Rain = 0
KPD1 171046Z 36017KT 07/M00 A301 RMK A01 T00671002  RH  061%=      5-min Rain = 0
KPD1 171047Z 35017KT 07/M00 A3011 RMK A01 T00681002  RH  061%=      5-min Rain = 0
KPD1 171048Z 36020G28KT 07/M00 A3011 RMK A01 T00671001  RH  061%=      5-min Rain = 0
KPD1 171049Z 35016G22KT 07/M00 A3011 RMK A01 T00671001  RH  062%=      5-min Rain = 0
KPD1 171050Z 35015KT 07/M00 A3011 RMK A01 T00681001  RH  062%=      5-min Rain = 0
KPD1 171051Z 35017G22KT 07/M00 A3011 RMK A01 T00671001  RH  062%=      5-min Rain = 0
KPD1 171052Z 36016G22KT 07/M00 A3011 RMK A01 T00671001  RH  062%=      5-min Rain = 0
KPD1 171053Z 35013KT 07/M00 A3011 RMK A01 T00671001  RH  062%=      5-min Rain = 0
KPD1 171054Z 35018KT 07/M00 A3011 RMK A01 T00671001  RH  062%=      5-min Rain = 0
KPD1 171055Z 35015G23KT 07/M00 A3011 RMK A01 T00671001  RH  062%=      5-min Rain = 0
KPD1 171056Z 35016G22KT 07/M00 A3011 RMK A01 T00671001  RH  062%=      5-min Rain = 0
KPD1 171057Z 36019G26KT 07/M00 A3011 RMK A01 T00661001  RH  062%=      5-min Rain = 0
KPD1 171058Z 35015KT 07/M00 A3011 RMK A01 T00661001  RH  062%=      5-min Rain = 0
KPD1 171059Z 36017KT 07/M00 A3011 RMK A01 T00661001  RH  062%=      5-min Rain = 0
KPD1 171100Z 35016G22KT 07/M00 A3011 RMK A01 T00661001  RH  062%=      5-min Rain = 0
KPD1 171101Z 00017KT 07/M00 A3011 RMK A01 T00661001  RH  062%=      5-min Rain = 0
KPD1 171102Z 36017G26KT 07/M00 A3011 RMK A01 T00661001  RH  062%=      5-min Rain = 0
KPD1 171103Z 35019G27KT 07/M00 A3012 RMK A01 T00661001  RH  062%=      5-min Rain = 0
KPD1 171104Z 36018G24KT 07/00 A3011 RMK A01 T006600-0  RH  063%=      5-min Rain = 0
KPD1 171105Z 35017G23KT 07/M00 A3011 RMK A01 T00661001  RH  063%=      5-min Rain = 0
KPD1 171106Z 36016G25KT 07/M00 A3011 RMK A01 T00651001  RH  063%=      5-min Rain = 0
KPD1 171107Z 00020G25KT 07/M00 A3011 RMK A01 T00651001  RH  063%=      5-min Rain = 0
KPD1 171108Z 00017G25KT 07/M00 A3011 RMK A01 T00651001  RH  063%=      5-min Rain = 0
KPD1 171109Z 35017KT 07/00 A3011 RMK A01 T006500-0  RH  063%=      5-min Rain = 0
KPD1 171110Z 35017G24KT 07/M00 A3012 RMK A01 T00651001  RH  063%=      5-min Rain = 0
KPD1 171111Z 36015KT 07/00 A3012 RMK A01 T006600-0  RH  063%=      5-min Rain = 0
KPD1 171112Z 35018G23KT 07/M00 A3012 RMK A01 T00651001  RH  063%=      5-min Rain = 0
KPD1 171113Z 35018G23KT 07/00 A3012 RMK A01 T006500-0  RH  063%=      5-min Rain = 0
KPD1 171114Z 35019G25KT 07/M00 A3012 RMK A01 T00651001  RH  063%=      5-min Rain = 0
KPD1 171115Z 36015G20KT 07/M00 A3012 RMK A01 T00651001  RH  063%=      5-min Rain = 0
KPD1 171116Z 35016G22KT 07/M00 A3012 RMK A01 T00651001  RH  063%=      5-min Rain = 0
KPD1 171117Z 35019KT 06/M00 A3012 RMK A01 T00641001  RH  063%=      5-min Rain = 0
KPD1 171118Z 35019G24KT 06/M00 A3012 RMK A01 T00641001  RH  063%=      5-min Rain = 0
KPD1 171119Z 36015KT 06/M00 A3012 RMK A01 T00641001  RH  063%=      5-min Rain = 0
KPD1 171120Z 35016G22KT 06/M00 A3012 RMK A01 T00641001  RH  063%=      5-min Rain = 0
KPD1 171121Z 35018G23KT 06/M00 A3012 RMK A01 T00641001  RH  063%=      5-min Rain = 0
KPD1 171122Z 36018G23KT 06/M00 A3012 RMK A01 T00641001  RH  063%=      5-min Rain = 0
KPD1 171123Z 35018G24KT 06/M00 A3012 RMK A01 T00631001  RH  063%=      5-min Rain = 0
KPD1 171124Z 35018G24KT 06/M00 A3012 RMK A01 T00631001  RH  063%=      5-min Rain = 0
KPD1 171125Z 36019KT 06/M00 A3013 RMK A01 T00641001  RH  063%=      5-min Rain = 0
KPD1 171126Z 35018G23KT 06/M00 A3012 RMK A01 T00631001  RH  063%=      5-min Rain = 0
KPD1 171127Z 36021KT 06/M00 A3013 RMK A01 T00631001  RH  063%=      5-min Rain = 0
KPD1 171128Z 35021G26KT 06/M00 A3013 RMK A01 T00621002  RH  063%=      5-min Rain = 0
KPD1 171129Z 35017G23KT 06/M00 A3013 RMK A01 T00631002  RH  064%=      5-min Rain = 0
KPD1 171130Z 35017G22KT 06/M00 A3013 RMK A01 T00631002  RH  064%=      5-min Rain = 0
KPD1 171131Z 35020G28KT 06/M00 A3013 RMK A01 T00621002  RH  064%=      5-min Rain = 0
KPD1 171132Z 36018KT 06/M00 A3013 RMK A01 T00621002  RH  064%=      5-min Rain = 0
KPD1 171133Z 36019KT 06/M00 A3013 RMK A01 T00611002  RH  064%=      5-min Rain = 0
KPD1 171134Z 35018G23KT 06/M00 A3013 RMK A01 T00621002  RH  064%=      5-min Rain = 0
KPD1 171135Z 35021G27KT 06/M00 A3013 RMK A01 T00621002  RH  064%=      5-min Rain = 0
KPD1 171136Z 35019KT 06/M00 A3013 RMK A01 T00621002  RH  064%=      5-min Rain = 0
KPD1 171137Z 35016KT 06/M00 A3013 RMK A01 T00621002  RH  064%=      5-min Rain = 0
KPD1 171138Z 35015G20KT 06/M00 A3013 RMK A01 T00611002  RH  064%=      5-min Rain = 0
KPD1 171139Z 36019G25KT 06/M00 A3013 RMK A01 T00611003  RH  064%=      5-min Rain = 0
KPD1 171140Z 36017G22KT 06/M00 A3013 RMK A01 T00611002  RH  064%=      5-min Rain = 0
KPD1 171141Z 36018KT 06/M00 A3013 RMK A01 T00611002  RH  064%=      5-min Rain = 0
KPD1 171142Z 35018G23KT 06/M00 A3014 RMK A01 T00611002  RH  064%=      5-min Rain = 0
KPD1 171143Z 36020KT 06/M00 A3014 RMK A01 T00601002  RH  064%=      5-min Rain = 0
KPD1 171144Z 35018G23KT 06/M00 A3014 RMK A01 T00601003  RH  064%=      5-min Rain = 0
KPD1 171145Z 35019G25KT 06/M00 A3014 RMK A01 T00601002  RH  064%=      5-min Rain = 0
KPD1 171146Z 35019G25KT 06/M00 A3014 RMK A01 T00601003  RH  064%=      5-min Rain = 0
KPD1 171147Z 35019G26KT 06/M00 A3014 RMK A01 T00601002  RH  064%=      5-min Rain = 0
KPD1 171148Z 35019G25KT 06/M00 A3014 RMK A01 T00601002  RH  064%=      5-min Rain = 0
KPD1 171149Z 35018G27KT 06/M00 A3014 RMK A01 T00601002  RH  064%=      5-min Rain = 0
KPD1 171150Z 35019G26KT 06/M00 A3014 RMK A01 T00601002  RH  064%=      5-min Rain = 0
KPD1 171151Z 35020G26KT 06/M00 A3014 RMK A01 T00601002  RH  064%=      5-min Rain = 0
KPD1 171152Z 35019KT 06/M00 A3014 RMK A01 T00601002  RH  064%=      5-min Rain = 0
KPD1 171153Z 35019G25KT 06/M00 A3014 RMK A01 T00601002  RH  064%=      5-min Rain = 0
KPD1 171154Z 35021KT 06/M00 A3014 RMK A01 T00601002  RH  065%=      5-min Rain = 0
KPD1 171155Z 35018KT 06/M00 A3014 RMK A01 T00601002  RH  065%=      5-min Rain = 0
KPD1 171156Z 35017G24KT 06/M00 A3014 RMK A01 T00591002  RH  065%=      5-min Rain = 0
KPD1 171157Z 35020G25KT 06/M00 A3014 RMK A01 T00591002  RH  065%=      5-min Rain = 0
KPD1 171158Z 35019G25KT 06/M00 A3014 RMK A01 T00591002  RH  065%=      5-min Rain = 0
KPD1 171159Z 35017KT 06/M00 A3015 RMK A01 T00591002  RH  065%=      5-min Rain = 0
KPD1 171200Z 35018G25KT 06/M00 A3015 RMK A01 T00591002  RH  065%=      5-min Rain = 0
KPD1 171201Z 35019G24KT 06/M00 A3015 RMK A01 T00591002  RH  065%=      5-min Rain = 0
KPD1 171202Z 35018G23KT 06/M00 A3015 RMK A01 T00591001  RH  065%=      5-min Rain = 0
KPD1 171203Z 35020KT 06/M00 A3015 RMK A01 T00581001  RH  065%=      5-min Rain = 0
KPD1 171204Z 35017G23KT 06/M00 A3015 RMK A01 T00591001  RH  065%=      5-min Rain = 0
KPD1 171205Z 35020KT 06/M00 A3015 RMK A01 T00581001  RH  065%=      5-min Rain = 0
KPD1 171206Z 36019G24KT 06/M00 A3015 RMK A01 T00581002  RH  066%=      5-min Rain = 0
KPD1 171207Z 35016G21KT 06/M00 A3015 RMK A01 T00581001  RH  066%=      5-min Rain = 0
KPD1 171208Z 35018G23KT 06/M00 A3015 RMK A01 T00581002  RH  066%=      5-min Rain = 0
KPD1 171209Z 35017KT 06/M00 A3015 RMK A01 T00571002  RH  066%=      5-min Rain = 0
KPD1 171210Z 34019G25KT 06/M00 A3015 RMK A01 T00571002  RH  066%=      5-min Rain = 0
KPD1 171211Z 35017KT 06/M00 A3015 RMK A01 T00571002  RH  066%=      5-min Rain = 0
KPD1 171212Z 35016G23KT 06/M00 A3015 RMK A01 T00571002  RH  066%=      5-min Rain = 0
KPD1 171213Z 35019G24KT 06/M00 A3015 RMK A01 T00571001  RH  066%=      5-min Rain = 0
KPD1 171214Z 36016KT 06/M00 A3015 RMK A01 T00571001  RH  066%=      5-min Rain = 0
KPD1 171215Z 35017G22KT 06/M00 A3015 RMK A01 T00571002  RH  066%=      5-min Rain = 0
KPD1 171216Z 35018G25KT 06/M00 A3015 RMK A01 T00561002  RH  066%=      5-min Rain = 0
KPD1 171217Z 35017G22KT 06/M00 A3015 RMK A01 T00561001  RH  066%=      5-min Rain = 0
KPD1 171218Z 35015KT 06/M00 A3015 RMK A01 T00561001  RH  066%=      5-min Rain = 0
KPD1 171219Z 36020G27KT 06/M00 A3015 RMK A01 T00561002  RH  067%=      5-min Rain = 0
KPD1 171220Z 36019KT 06/M00 A3015 RMK A01 T00561001  RH  067%=      5-min Rain = 0
KPD1 171221Z 35018G23KT 06/M00 A3015 RMK A01 T00561001  RH  067%=      5-min Rain = 0
KPD1 171222Z 35017G23KT 06/M00 A3015 RMK A01 T00561002  RH  067%=      5-min Rain = 0
KPD1 171223Z 35017G23KT 06/M00 A3015 RMK A01 T00561002  RH  067%=      5-min Rain = 0
KPD1 171224Z 35019KT 06/M00 A3016 RMK A01 T00561001  RH  067%=      5-min Rain = 0
KPD1 171225Z 36017KT 06/M00 A3016 RMK A01 T00561001  RH  067%=      5-min Rain = 0
KPD1 171226Z 35017G23KT 06/M00 A3016 RMK A01 T00561001  RH  067%=      5-min Rain = 0
KPD1 171227Z 35018G24KT 06/M00 A3016 RMK A01 T00561001  RH  067%=      5-min Rain = 0
KPD1 171228Z 35016G21KT 06/M00 A3016 RMK A01 T00561001  RH  067%=      5-min Rain = 0
KPD1 171229Z 35016G21KT 06/M00 A3016 RMK A01 T00551002  RH  067%=      5-min Rain = 0
KPD1 171230Z 35016KT 06/M00 A3016 RMK A01 T00551001  RH  067%=      5-min Rain = 0
KPD1 171231Z 35017G23KT 06/M00 A3016 RMK A01 T00551001  RH  067%=      5-min Rain = 0
KPD1 171232Z 35017G26KT 06/M00 A3016 RMK A01 T00551001  RH  067%=      5-min Rain = 0
KPD1 171233Z 35016KT 06/M00 A3016 RMK A01 T00551001  RH  067%=      5-min Rain = 0
KPD1 171234Z 35018KT 05/M00 A3016 RMK A01 T00541001  RH  067%=      5-min Rain = 0
KPD1 171235Z 35017KT 05/M00 A3016 RMK A01 T00541001  RH  068%=      5-min Rain = 0
KPD1 171236Z 35018G23KT 05/M00 A3016 RMK A01 T00541001  RH  068%=      5-min Rain = 0
KPD1 171237Z 35021KT 05/M00 A3016 RMK A01 T00541001  RH  068%=      5-min Rain = 0
KPD1 171238Z 35019G24KT 05/M00 A3016 RMK A01 T00541001  RH  068%=      5-min Rain = 0
KPD1 171239Z 35017G22KT 05/M00 A3016 RMK A01 T00541001  RH  068%=      5-min Rain = 0
KPD1 171240Z 35017KT 05/M00 A3016 RMK A01 T00541001  RH  068%=      5-min Rain = 0
KPD1 171241Z 35018KT 05/M00 A3016 RMK A01 T00541001  RH  068%=      5-min Rain = 0
KPD1 171242Z 35017KT 05/M00 A3016 RMK A01 T00541001  RH  068%=      5-min Rain = 0
KPD1 171243Z 35018G24KT 05/M00 A3016 RMK A01 T00531001  RH  068%=      5-min Rain = 0
KPD1 171244Z 36018G27KT 05/M00 A3016 RMK A01 T00531001  RH  068%=      5-min Rain = 0
KPD1 171245Z 35019KT 05/M00 A3016 RMK A01 T00531001  RH  068%=      5-min Rain = 0
KPD1 171246Z 35018KT 05/M00 A3016 RMK A01 T00531001  RH  068%=      5-min Rain = 0
KPD1 171247Z 36017G23KT 05/M00 A3016 RMK A01 T00531001  RH  068%=      5-min Rain = 0
KPD1 171248Z 35018G23KT 05/00 A3016 RMK A01 T005300-0  RH  068%=      5-min Rain = 0
KPD1 171249Z 36017G23KT 05/M00 A3016 RMK A01 T00531001  RH  068%=      5-min Rain = 0
KPD1 171250Z 35019KT 05/00 A3016 RMK A01 T005300-0  RH  068%=      5-min Rain = 0
KPD1 171251Z 35018G25KT 05/M00 A3016 RMK A01 T00531001  RH  069%=      5-min Rain = 0
KPD1 171252Z 35016G22KT 05/00 A3016 RMK A01 T005300-0  RH  069%=      5-min Rain = 0
KPD1 171253Z 35020KT 05/M00 A3017 RMK A01 T00521001  RH  069%=      5-min Rain = 0
KPD1 171254Z 35019KT 05/00 A3016 RMK A01 T005200-0  RH  069%=      5-min Rain = 0
KPD1 171255Z 35017G24KT 05/00 A3016 RMK A01 T00530000  RH  069%=      5-min Rain = 0
KPD1 171256Z 35021G26KT 05/00 A3017 RMK A01 T005200-0  RH  069%=      5-min Rain = 0
KPD1 171257Z 36018KT 05/00 A3017 RMK A01 T005200-0  RH  069%=      5-min Rain = 0
KPD1 171258Z 35020KT 05/00 A3017 RMK A01 T005200-0  RH  069%=      5-min Rain = 0
KPD1 171259Z 35017KT 05/00 A3017 RMK A01 T005200-0  RH  069%=      5-min Rain = 0
KPD1 171300Z 35020G27KT 05/00 A3017 RMK A01 T005200-0  RH  069%=      5-min Rain = 0
KPD1 171301Z 35020G25KT 05/00 A3017 RMK A01 T00520000  RH  069%=      5-min Rain = 0
KPD1 171302Z 35018KT 05/00 A3017 RMK A01 T005200-0  RH  069%=      5-min Rain = 0
KPD1 171303Z 35015KT 05/00 A3017 RMK A01 T005100-0  RH  069%=      5-min Rain = 0
KPD1 171304Z 35018KT 05/00 A3017 RMK A01 T005100-0  RH  069%=      5-min Rain = 0
KPD1 171305Z 35019G25KT 05/00 A3017 RMK A01 T005100-0  RH  070%=      5-min Rain = 0
KPD1 171306Z 34018KT 05/00 A3017 RMK A01 T005100-0  RH  070%=      5-min Rain = 0
KPD1 171307Z 35018G23KT 05/00 A3017 RMK A01 T005100-0  RH  070%=      5-min Rain = 0
KPD1 171308Z 35015G20KT 05/00 A3017 RMK A01 T00510001  RH  070%=      5-min Rain = 0
KPD1 171309Z 35018G23KT 05/00 A3017 RMK A01 T00510000  RH  070%=      5-min Rain = 0
KPD1 171310Z 35015KT 05/00 A3017 RMK A01 T00510000  RH  070%=      5-min Rain = 0
KPD1 171311Z 35019G24KT 05/00 A3017 RMK A01 T00500000  RH  070%=      5-min Rain = 0
KPD1 171312Z 35016KT 05/00 A3017 RMK A01 T00500000  RH  070%=      5-min Rain = 0
KPD1 171313Z 36017KT 05/00 A3018 RMK A01 T00500001  RH  070%=      5-min Rain = 0
KPD1 171314Z 35019KT 05/00 A3018 RMK A01 T00500000  RH  070%=      5-min Rain = 0
KPD1 171315Z 36018G23KT 05/00 A3018 RMK A01 T00500001  RH  070%=      5-min Rain = 0
KPD1 171316Z 34015G23KT 05/00 A3018 RMK A01 T00500001  RH  070%=      5-min Rain = 0
KPD1 171317Z 35014G20KT 05/00 A3018 RMK A01 T00500001  RH  071%=      5-min Rain = 0
KPD1 171318Z 36016G23KT 05/00 A3018 RMK A01 T00490001  RH  071%=      5-min Rain = 0
KPD1 171319Z 35017KT 05/00 A3018 RMK A01 T00490001  RH  071%=      5-min Rain = 0
KPD1 171320Z 35016G21KT 05/00 A3018 RMK A01 T00490001  RH  071%=      5-min Rain = 0
KPD1 171321Z 35016G22KT 05/00 A3018 RMK A01 T00490001  RH  071%=      5-min Rain = 0
KPD1 171322Z 35017G23KT 05/00 A3018 RMK A01 T00490001  RH  071%=      5-min Rain = 0
KPD1 171323Z 35016G23KT 05/00 A3018 RMK A01 T00490002  RH  072%=      5-min Rain = 0
KPD1 171324Z 35015G20KT 05/00 A3018 RMK A01 T00490002  RH  072%=      5-min Rain = 0
KPD1 171325Z 00017KT 05/00 A3018 RMK A01 T00490002  RH  072%=      5-min Rain = 0
KPD1 171326Z 35017G23KT 05/00 A3018 RMK A01 T00490003  RH  072%=      5-min Rain = 0
KPD1 171327Z 35015KT 05/00 A3018 RMK A01 T00490003  RH  072%=      5-min Rain = 0
KPD1 171328Z 35015KT 05/00 A3018 RMK A01 T00490003  RH  072%=      5-min Rain = 0
KPD1 171329Z 35015G20KT 05/00 A3018 RMK A01 T00490003  RH  072%=      5-min Rain = 0
KPD1 171330Z 35017KT 05/00 A3018 RMK A01 T00490003  RH  072%=      5-min Rain = 0
KPD1 171331Z 35014G19KT 05/00 A3018 RMK A01 T00490003  RH  072%=      5-min Rain = 0
KPD1 171332Z 35016G22KT 05/00 A3019 RMK A01 T00490004  RH  072%=      5-min Rain = 0
KPD1 171333Z 36018KT 05/00 A3018 RMK A01 T00490004  RH  073%=      5-min Rain = 0
KPD1 171334Z 35014KT 05/00 A3019 RMK A01 T00490004  RH  073%=      5-min Rain = 0
KPD1 171335Z 35015KT 05/00 A3019 RMK A01 T00490004  RH  073%=      5-min Rain = 0
KPD1 171336Z 35012G18KT 05/00 A3019 RMK A01 T00490004  RH  073%=      5-min Rain = 0
KPD1 171337Z 35015KT 05/00 A3019 RMK A01 T00490004  RH  073%=      5-min Rain = 0
KPD1 171338Z 35014KT 05/00 A3019 RMK A01 T00490004  RH  073%=      5-min Rain = 0
KPD1 171339Z 35013KT 05/00 A3019 RMK A01 T00490004  RH  073%=      5-min Rain = 0
KPD1 171340Z 35015G20KT 05/01 A3019 RMK A01 T00490005  RH  073%=      5-min Rain = 0
KPD1 171341Z 35017G23KT 05/01 A3019 RMK A01 T00490005  RH  073%=      5-min Rain = 0
KPD1 171342Z 36016G21KT 05/01 A3019 RMK A01 T00490005  RH  073%=      5-min Rain = 0
KPD1 171343Z 35016G21KT 05/01 A3019 RMK A01 T00490006  RH  073%=      5-min Rain = 0
KPD1 171344Z 35014KT 05/01 A3019 RMK A01 T00490005  RH  073%=      5-min Rain = 0
KPD1 171345Z 36014G19KT 05/01 A3019 RMK A01 T00490006  RH  073%=      5-min Rain = 0
KPD1 171346Z 35016KT 05/01 A3019 RMK A01 T00490006  RH  073%=      5-min Rain = 0
KPD1 171347Z 36016KT 05/01 A3019 RMK A01 T00490006  RH  073%=      5-min Rain = 0
KPD1 171348Z 35015KT 05/01 A3019 RMK A01 T00490006  RH  074%=      5-min Rain = 0
KPD1 171349Z 35015KT 05/01 A3019 RMK A01 T00490006  RH  074%=      5-min Rain = 0
KPD1 171350Z 35015KT 05/01 A3019 RMK A01 T00500007  RH  074%=      5-min Rain = 0
KPD1 171351Z 35012KT 05/01 A302 RMK A01 T00500006  RH  074%=      5-min Rain = 0
KPD1 171352Z 36014G19KT 05/01 A302 RMK A01 T00500007  RH  074%=      5-min Rain = 0
KPD1 171353Z 36013G18KT 05/01 A302 RMK A01 T00500006  RH  074%=      5-min Rain = 0
KPD1 171354Z 35012KT 05/01 A302 RMK A01 T00500006  RH  074%=      5-min Rain = 0
KPD1 171355Z 35015KT 05/01 A302 RMK A01 T00500007  RH  074%=      5-min Rain = 0
KPD1 171356Z 35014KT 05/01 A302 RMK A01 T00500007  RH  074%=      5-min Rain = 0
KPD1 171357Z 34011G17KT 05/01 A302 RMK A01 T00500007  RH  074%=      5-min Rain = 0
KPD1 171358Z 35016KT 05/01 A302 RMK A01 T00510007  RH  074%=      5-min Rain = 0
KPD1 171359Z 35014G20KT 05/01 A302 RMK A01 T00510007  RH  074%=      5-min Rain = 0
KPD1 171400Z 34011G18KT 05/01 A302 RMK A01 T00510008  RH  074%=      5-min Rain = 0
KPD1 171401Z 34013G19KT 05/01 A302 RMK A01 T00510008  RH  074%=      5-min Rain = 0
KPD1 171402Z 35016KT 05/01 A302 RMK A01 T00520008  RH  073%=      5-min Rain = 0
KPD1 171403Z 35014KT 05/01 A302 RMK A01 T00520008  RH  073%=      5-min Rain = 0
KPD1 171404Z 35013G19KT 05/01 A302 RMK A01 T00510008  RH  073%=      5-min Rain = 0
KPD1 171405Z 35013KT 05/01 A302 RMK A01 T00520008  RH  073%=      5-min Rain = 0
KPD1 171406Z 35014G19KT 05/01 A302 RMK A01 T00520008  RH  073%=      5-min Rain = 0
KPD1 171407Z 34014G19KT 05/01 A302 RMK A01 T00520008  RH  073%=      5-min Rain = 0
KPD1 171408Z 35013G18KT 05/01 A302 RMK A01 T00520008  RH  073%=      5-min Rain = 0
KPD1 171409Z 36014G19KT 05/01 A302 RMK A01 T00520008  RH  073%=      5-min Rain = 0
KPD1 171410Z 35014G19KT 05/01 A302 RMK A01 T00530009  RH  073%=      5-min Rain = 0
KPD1 171411Z 34012KT 05/01 A302 RMK A01 T00530009  RH  073%=      5-min Rain = 0
KPD1 171412Z 35013KT 05/01 A302 RMK A01 T00530009  RH  073%=      5-min Rain = 0
KPD1 171413Z 35011KT 05/01 A302 RMK A01 T00530009  RH  073%=      5-min Rain = 0
KPD1 171414Z 36013G18KT 05/01 A302 RMK A01 T00540009  RH  073%=      5-min Rain = 0
KPD1 171415Z 35011G16KT 05/01 A302 RMK A01 T00540009  RH  073%=      5-min Rain = 0
KPD1 171416Z 34013KT 05/01 A302 RMK A01 T00540010  RH  073%=      5-min Rain = 0
KPD1 171417Z 35014KT 05/01 A302 RMK A01 T00540010  RH  073%=      5-min Rain = 0
KPD1 171418Z 35013KT 05/01 A302 RMK A01 T00540010  RH  073%=      5-min Rain = 0
KPD1 171419Z 34010G15KT 06/01 A302 RMK A01 T00550010  RH  073%=      5-min Rain = 0
KPD1 171420Z 35014KT 06/01 A302 RMK A01 T00550010  RH  073%=      5-min Rain = 0
KPD1 171421Z 35012KT 06/01 A302 RMK A01 T00550010  RH  073%=      5-min Rain = 0
KPD1 171422Z 35012KT 06/01 A302 RMK A01 T00550010  RH  073%=      5-min Rain = 0
KPD1 171423Z 36016G22KT 06/01 A302 RMK A01 T00560011  RH  073%=      5-min Rain = 0
KPD1 171424Z 35015KT 06/01 A302 RMK A01 T00560011  RH  073%=      5-min Rain = 0
KPD1 171425Z 36013KT 06/01 A302 RMK A01 T00560010  RH  073%=      5-min Rain = 0
KPD1 171426Z 35010G16KT 06/01 A302 RMK A01 T00560011  RH  073%=      5-min Rain = 0
KPD1 171427Z 35015KT 06/01 A302 RMK A01 T00570011  RH  072%=      5-min Rain = 0
KPD1 171428Z 36011KT 06/01 A302 RMK A01 T00570011  RH  072%=      5-min Rain = 0
KPD1 171429Z 35011KT 06/01 A302 RMK A01 T00570011  RH  072%=      5-min Rain = 0
KPD1 171430Z 34013G18KT 06/01 A302 RMK A01 T00580011  RH  072%=      5-min Rain = 0
KPD1 171431Z 36013KT 06/01 A302 RMK A01 T00580011  RH  072%=      5-min Rain = 0
KPD1 171432Z 35012KT 06/01 A302 RMK A01 T00580011  RH  072%=      5-min Rain = 0
KPD1 171433Z 35009KT 06/01 A302 RMK A01 T00590012  RH  072%=      5-min Rain = 0
KPD1 171434Z 34010G16KT 06/01 A302 RMK A01 T00590012  RH  072%=      5-min Rain = 0
KPD1 171435Z 35012G17KT 06/01 A302 RMK A01 T00600012  RH  071%=      5-min Rain = 0
KPD1 171436Z 35010KT 06/01 A302 RMK A01 T00600012  RH  071%=      5-min Rain = 0
KPD1 171437Z 35011KT 06/01 A302 RMK A01 T00610012  RH  071%=      5-min Rain = 0
KPD1 171438Z 34013KT 06/01 A302 RMK A01 T00610012  RH  071%=      5-min Rain = 0
KPD1 171439Z 35012KT 06/01 A302 RMK A01 T00610012  RH  071%=      5-min Rain = 0
KPD1 171440Z 35010KT 06/01 A302 RMK A01 T00610012  RH  071%=      5-min Rain = 0
KPD1 171441Z 35009G14KT 06/01 A302 RMK A01 T00620013  RH  071%=      5-min Rain = 0
KPD1 171442Z 35012KT 06/01 A3021 RMK A01 T00630013  RH  070%=      5-min Rain = 0
KPD1 171443Z 34012KT 06/01 A302 RMK A01 T00630012  RH  070%=      5-min Rain = 0
KPD1 171444Z 35010G18KT 06/01 A3021 RMK A01 T00630013  RH  070%=      5-min Rain = 0
KPD1 171445Z 00013KT 06/01 A3021 RMK A01 T00640013  RH  070%=      5-min Rain = 0
KPD1 171446Z 35011KT 06/01 A3021 RMK A01 T00640013  RH  070%=      5-min Rain = 0
KPD1 171447Z 36012KT 06/01 A3021 RMK A01 T00640012  RH  070%=      5-min Rain = 0
KPD1 171448Z 35011KT 06/01 A3021 RMK A01 T00640013  RH  070%=      5-min Rain = 0
KPD1 171449Z 35012KT 07/01 A3021 RMK A01 T00650013  RH  070%=      5-min Rain = 0
KPD1 171450Z 35012KT 07/01 A3021 RMK A01 T00650013  RH  069%=      5-min Rain = 0
KPD1 171451Z 36011KT 07/01 A3021 RMK A01 T00650013  RH  069%=      5-min Rain = 0
KPD1 171452Z 35015KT 07/01 A3021 RMK A01 T00660014  RH  069%=      5-min Rain = 0
KPD1 171453Z 36011G17KT 07/01 A3021 RMK A01 T00670013  RH  069%=      5-min Rain = 0
KPD1 171454Z 35014KT 07/01 A3021 RMK A01 T00660013  RH  069%=      5-min Rain = 0
KPD1 171455Z 35011KT 07/01 A3021 RMK A01 T00660013  RH  069%=      5-min Rain = 0
KPD1 171456Z 35014G19KT 07/01 A3021 RMK A01 T00670013  RH  069%=      5-min Rain = 0
KPD1 171457Z 35014KT 07/01 A3021 RMK A01 T00680013  RH  068%=      5-min Rain = 0
KPD1 171458Z 35012KT 07/01 A3021 RMK A01 T00680013  RH  068%=      5-min Rain = 0
KPD1 171459Z 36011KT 07/01 A3021 RMK A01 T00680014  RH  068%=      5-min Rain = 0
KPD1 171500Z 36012KT 07/01 A3021 RMK A01 T00690014  RH  068%=      5-min Rain = 0
KPD1 171501Z 00012G17KT 07/01 A3021 RMK A01 T00690013  RH  067%=      5-min Rain = 0
KPD1 171502Z 35009G14KT 07/01 A3021 RMK A01 T00690013  RH  067%=      5-min Rain = 0
KPD1 171503Z 36008KT 07/01 A3021 RMK A01 T00700014  RH  067%=      5-min Rain = 0
KPD1 171504Z 35009KT 07/01 A3021 RMK A01 T00710014  RH  067%=      5-min Rain = 0
KPD1 171505Z 34012KT 07/01 A3021 RMK A01 T00720013  RH  066%=      5-min Rain = 0
KPD1 171506Z 35010KT 07/01 A3021 RMK A01 T00720013  RH  066%=      5-min Rain = 0
KPD1 171507Z 35009KT 07/01 A3021 RMK A01 T00720013  RH  066%=      5-min Rain = 0
KPD1 171508Z 36007KT 07/01 A3021 RMK A01 T00730014  RH  066%=      5-min Rain = 0
KPD1 171509Z 35009KT 07/02 A3021 RMK A01 T00740015  RH  066%=      5-min Rain = 0
KPD1 171510Z 35009G14KT 08/02 A3021 RMK A01 T00750015  RH  065%=      5-min Rain = 0
KPD1 171511Z 01009KT 08/01 A3021 RMK A01 T00760014  RH  065%=      5-min Rain = 0
KPD1 171512Z 00011KT 08/01 A3021 RMK A01 T00760014  RH  065%=      5-min Rain = 0
KPD1 171513Z 02011KT 08/01 A3021 RMK A01 T00750013  RH  065%=      5-min Rain = 0
KPD1 171514Z 36011KT 08/01 A3021 RMK A01 T00750013  RH  065%=      5-min Rain = 0
KPD1 171515Z 01010KT 08/01 A3021 RMK A01 T00750013  RH  065%=      5-min Rain = 0
KPD1 171516Z 36009KT 08/01 A3021 RMK A01 T00750013  RH  065%=      5-min Rain = 0
KPD1 171517Z 35007G13KT 08/01 A3021 RMK A01 T00750013  RH  065%=      5-min Rain = 0
KPD1 171518Z 36007KT 08/01 A3021 RMK A01 T00760014  RH  065%=      5-min Rain = 0
KPD1 171519Z 35007KT 08/01 A3021 RMK A01 T00770014  RH  065%=      5-min Rain = 0
KPD1 171520Z 01010KT 08/01 A3021 RMK A01 T00780014  RH  064%=      5-min Rain = 0
KPD1 171521Z 00009G17KT 08/01 A3021 RMK A01 T00780013  RH  064%=      5-min Rain = 0
KPD1 171522Z 02009KT 08/01 A3021 RMK A01 T00780013  RH  063%=      5-min Rain = 0
KPD1 171523Z 00010KT 08/01 A3022 RMK A01 T00780013  RH  064%=      5-min Rain = 0
KPD1 171524Z 00010KT 08/01 A3022 RMK A01 T00780013  RH  063%=      5-min Rain = 0
KPD1 171525Z 00013KT 08/01 A3022 RMK A01 T00780013  RH  064%=      5-min Rain = 0
KPD1 171526Z 00013KT 08/01 A3022 RMK A01 T00780013  RH  063%=      5-min Rain = 0
KPD1 171527Z 00010KT 08/01 A3022 RMK A01 T00780012  RH  063%=      5-min Rain = 0
KPD1 171528Z 01012KT 08/01 A3022 RMK A01 T00780012  RH  063%=      5-min Rain = 0
KPD1 171529Z 01010KT 08/01 A3022 RMK A01 T00780012  RH  063%=      5-min Rain = 0
KPD1 171530Z 00009KT 08/01 A3022 RMK A01 T00790012  RH  063%=      5-min Rain = 0
KPD1 171531Z 00007KT 08/01 A3022 RMK A01 T00790013  RH  063%=      5-min Rain = 0
KPD1 171532Z 00009KT 08/01 A3022 RMK A01 T00800014  RH  063%=      5-min Rain = 0
KPD1 171533Z 00010KT 08/01 A3022 RMK A01 T00820014  RH  062%=      5-min Rain = 0
KPD1 171534Z 00012KT 08/01 A3022 RMK A01 T00820014  RH  062%=      5-min Rain = 0
KPD1 171535Z 00011KT 08/01 A3022 RMK A01 T00830013  RH  062%=      5-min Rain = 0
KPD1 171536Z 00015KT 08/01 A3022 RMK A01 T00820013  RH  062%=      5-min Rain = 0
KPD1 171537Z 01011KT 08/01 A3022 RMK A01 T00810012  RH  062%=      5-min Rain = 0
KPD1 171538Z 00010KT 08/01 A3022 RMK A01 T00820013  RH  062%=      5-min Rain = 0
KPD1 171539Z 02010KT 08/01 A3022 RMK A01 T00830014  RH  062%=      5-min Rain = 0
KPD1 171540Z 02011G16KT 08/01 A3022 RMK A01 T00830013  RH  061%=      5-min Rain = 0
KPD1 171541Z 03012KT 08/01 A3022 RMK A01 T00830012  RH  061%=      5-min Rain = 0
KPD1 171542Z 00010KT 08/01 A3022 RMK A01 T00830012  RH  061%=      5-min Rain = 0
KPD1 171543Z 01011G16KT 08/01 A3022 RMK A01 T00840013  RH  061%=      5-min Rain = 0
KPD1 171544Z 01010KT 08/01 A3021 RMK A01 T00840012  RH  061%=      5-min Rain = 0
KPD1 171545Z 02009KT 09/02 A3021 RMK A01 T00850015  RH  061%=      5-min Rain = 0
KPD1 171546Z 03008G13KT 09/02 A3022 RMK A01 T00870015  RH  061%=      5-min Rain = 0
KPD1 171547Z 02008KT 09/02 A3022 RMK A01 T00880015  RH  060%=      5-min Rain = 0
KPD1 171548Z 36008KT 09/02 A3021 RMK A01 T00870015  RH  060%=      5-min Rain = 0
KPD1 171549Z 36008KT 09/02 A3021 RMK A01 T00870015  RH  060%=      5-min Rain = 0
KPD1 171550Z 01008G13KT 09/02 A3021 RMK A01 T00890016  RH  060%=      5-min Rain = 0
KPD1 171551Z 01013G18KT 09/02 A3021 RMK A01 T00900016  RH  060%=      5-min Rain = 0
KPD1 171552Z 01012KT 09/02 A3021 RMK A01 T00900015  RH  059%=      5-min Rain = 0
KPD1 171553Z 00008KT 09/01 A3021 RMK A01 T00880013  RH  060%=      5-min Rain = 0
KPD1 171554Z 00008KT 09/02 A3021 RMK A01 T00880015  RH  060%=      5-min Rain = 0
KPD1 171555Z 02006KT 09/02 A3021 RMK A01 T00900016  RH  060%=      5-min Rain = 0
KPD1 171556Z 02009G14KT 09/02 A3021 RMK A01 T00910016  RH  059%=      5-min Rain = 0
KPD1 171557Z 04010KT 09/02 A3021 RMK A01 T00920015  RH  058%=      5-min Rain = 0
KPD1 171558Z 03010KT 09/01 A3021 RMK A01 T00920014  RH  058%=      5-min Rain = 0
KPD1 171559Z 01007KT 09/01 A3021 RMK A01 T00910014  RH  059%=      5-min Rain = 0
KPD1 171600Z 36010KT 09/02 A3022 RMK A01 T00930017  RH  059%=      5-min Rain = 0
KPD1 171601Z 02011KT 10/02 A3022 RMK A01 T00950015  RH  058%=      5-min Rain = 0
KPD1 171602Z 02010KT 09/01 A3022 RMK A01 T00930014  RH  058%=      5-min Rain = 0
KPD1 171603Z 01011G16KT 09/01 A3022 RMK A01 T00920014  RH  058%=      5-min Rain = 0
KPD1 171604Z 00011G17KT 09/02 A3022 RMK A01 T00930015  RH  058%=      5-min Rain = 0
KPD1 171605Z 36015KT 09/01 A3022 RMK A01 T00930014  RH  058%=      5-min Rain = 0
KPD1 171606Z 01012KT 09/01 A3022 RMK A01 T00930014  RH  058%=      5-min Rain = 0
KPD1 171607Z 00011G16KT 09/01 A3022 RMK A01 T00930014  RH  058%=      5-min Rain = 0
KPD1 171608Z 36014KT 09/01 A3022 RMK A01 T00930014  RH  058%=      5-min Rain = 0
KPD1 171609Z 00012KT 09/01 A3022 RMK A01 T00930014  RH  058%=      5-min Rain = 0
KPD1 171610Z 00013KT 09/01 A3022 RMK A01 T00930014  RH  058%=      5-min Rain = 0
KPD1 171611Z 00014KT 09/01 A3021 RMK A01 T00930014  RH  058%=      5-min Rain = 0
KPD1 171612Z 00012KT 09/01 A3021 RMK A01 T00920013  RH  058%=      5-min Rain = 0
KPD1 171613Z 02009KT 09/01 A3021 RMK A01 T00920014  RH  058%=      5-min Rain = 0
KPD1 171614Z 01010G15KT 09/02 A3021 RMK A01 T00930015  RH  058%=      5-min Rain = 0
KPD1 171615Z 35013G19KT 10/02 A3021 RMK A01 T00950016  RH  058%=      5-min Rain = 0
KPD1 171616Z 01012KT 10/01 A3021 RMK A01 T00950014  RH  057%=      5-min Rain = 0
KPD1 171617Z 02008G13KT 09/01 A3021 RMK A01 T00940014  RH  057%=      5-min Rain = 0
KPD1 171618Z 01011KT 10/02 A3021 RMK A01 T00950015  RH  057%=      5-min Rain = 0
KPD1 171619Z 01008KT 10/02 A3022 RMK A01 T00960015  RH  057%=      5-min Rain = 0
KPD1 171620Z 36008KT 10/02 A3022 RMK A01 T00970016  RH  057%=      5-min Rain = 0
KPD1 171621Z 00009KT 10/02 A3022 RMK A01 T00990016  RH  056%=      5-min Rain = 0
KPD1 171622Z 01005KT 10/02 A3022 RMK A01 T00980015  RH  056%=      5-min Rain = 0
KPD1 171623Z 03010G15KT 10/02 A3022 RMK A01 T00980015  RH  056%=      5-min Rain = 0
KPD1 171624Z 02009KT 10/01 A3022 RMK A01 T00980013  RH  056%=      5-min Rain = 0
KPD1 171625Z 02008KT 10/01 A3022 RMK A01 T00970014  RH  056%=      5-min Rain = 0
KPD1 171626Z 03005KT 10/02 A3022 RMK A01 T00970015  RH  056%=      5-min Rain = 0
KPD1 171627Z 36009KT 10/02 A3022 RMK A01 T00990017  RH  056%=      5-min Rain = 0
KPD1 171628Z 01009KT 10/02 A3022 RMK A01 T01010015  RH  055%=      5-min Rain = 0
KPD1 171629Z 02008KT 10/01 A3022 RMK A01 T01000014  RH  055%=      5-min Rain = 0
KPD1 171630Z 03007KT 10/01 A3022 RMK A01 T00980013  RH  056%=      5-min Rain = 0
KPD1 171631Z 00006G12KT 10/02 A3022 RMK A01 T00980015  RH  056%=      5-min Rain = 0
KPD1 171632Z 00012KT 10/02 A3022 RMK A01 T01000016  RH  056%=      5-min Rain = 0
KPD1 171633Z 01011KT 10/01 A3022 RMK A01 T01000014  RH  055%=      5-min Rain = 0
KPD1 171634Z 00011KT 10/01 A3022 RMK A01 T01000014  RH  055%=      5-min Rain = 0
KPD1 171635Z 01010KT 10/02 A3022 RMK A01 T01000015  RH  056%=      5-min Rain = 0
KPD1 171636Z 01010KT 10/02 A3022 RMK A01 T00990015  RH  056%=      5-min Rain = 0
KPD1 171637Z 36009KT 10/01 A3022 RMK A01 T00990014  RH  055%=      5-min Rain = 0
KPD1 171638Z 02009KT 10/01 A3021 RMK A01 T00990014  RH  055%=      5-min Rain = 0
KPD1 171639Z 01012KT 10/02 A3021 RMK A01 T01000015  RH  055%=      5-min Rain = 0
KPD1 171640Z 01008KT 10/01 A3021 RMK A01 T01010014  RH  055%=      5-min Rain = 0
KPD1 171641Z 01010KT 10/02 A3021 RMK A01 T01010015  RH  055%=      5-min Rain = 0
KPD1 171642Z 01011KT 10/02 A3021 RMK A01 T01010015  RH  055%=      5-min Rain = 0
KPD1 171643Z 36011KT 10/02 A3021 RMK A01 T01020015  RH  055%=      5-min Rain = 0
KPD1 171644Z 00011KT 10/01 A3021 RMK A01 T01010014  RH  055%=      5-min Rain = 0
KPD1 171645Z 00011KT 10/01 A3021 RMK A01 T01010014  RH  055%=      5-min Rain = 0
KPD1 171646Z 01010KT 10/01 A3021 RMK A01 T01010014  RH  055%=      5-min Rain = 0
KPD1 171647Z 00010KT 10/01 A3021 RMK A01 T01010014  RH  055%=      5-min Rain = 0
KPD1 171648Z 00010KT 10/02 A3021 RMK A01 T01020015  RH  055%=      5-min Rain = 0
KPD1 171649Z 01012KT 10/02 A3021 RMK A01 T01020015  RH  055%=      5-min Rain = 0
KPD1 171650Z 01011KT 10/01 A3021 RMK A01 T01020014  RH  055%=      5-min Rain = 0
KPD1 171651Z 01011KT 10/01 A3021 RMK A01 T01020014  RH  055%=      5-min Rain = 0
KPD1 171652Z 01010KT 10/01 A3021 RMK A01 T01020014  RH  054%=      5-min Rain = 0
KPD1 171653Z 04009KT 10/01 A3021 RMK A01 T01020014  RH  054%=      5-min Rain = 0
KPD1 171654Z 02009KT 10/01 A3021 RMK A01 T01020014  RH  054%=      5-min Rain = 0
KPD1 171655Z 03009KT 10/01 A3021 RMK A01 T01020014  RH  054%=      5-min Rain = 0
KPD1 171656Z 04006KT 10/01 A3021 RMK A01 T01020014  RH  054%=      5-min Rain = 0
KPD1 171657Z 03007G12KT 10/02 A3021 RMK A01 T01030016  RH  055%=      5-min Rain = 0
KPD1 171658Z 03008KT 11/02 A3021 RMK A01 T01050016  RH  054%=      5-min Rain = 0
KPD1 171659Z 01010KT 11/02 A3021 RMK A01 T01060016  RH  054%=      5-min Rain = 0
KPD1 171700Z 35009KT 11/02 A3021 RMK A01 T01070016  RH  053%=      5-min Rain = 0
KPD1 171701Z 36006KT 11/02 A3021 RMK A01 T01090017  RH  053%=      5-min Rain = 0
KPD1 171702Z 02007KT 11/02 A3021 RMK A01 T01110017  RH  052%=      5-min Rain = 0
KPD1 171703Z 36010KT 11/02 A3021 RMK A01 T01100015  RH  052%=      5-min Rain = 0
KPD1 171704Z 01010KT 11/01 A3021 RMK A01 T01080014  RH  052%=      5-min Rain = 0
KPD1 171705Z 01011KT 11/02 A3021 RMK A01 T01090015  RH  052%=      5-min Rain = 0
KPD1 171706Z 00008G14KT 11/01 A3021 RMK A01 T01090014  RH  052%=      5-min Rain = 0
KPD1 171707Z 36010KT 11/01 A3021 RMK A01 T01090014  RH  052%=      5-min Rain = 0
KPD1 171708Z 00010KT 11/02 A3021 RMK A01 T01100015  RH  052%=      5-min Rain = 0
KPD1 171709Z 01010KT 11/02 A3021 RMK A01 T01110015  RH  052%=      5-min Rain = 0
KPD1 171710Z 01008KT 11/01 A3021 RMK A01 T01100014  RH  052%=      5-min Rain = 0
KPD1 171711Z 00008KT 11/02 A3021 RMK A01 T01100015  RH  052%=      5-min Rain = 0
KPD1 171712Z 02009KT 11/02 A3021 RMK A01 T01110015  RH  051%=      5-min Rain = 0
KPD1 171713Z 02008KT 11/01 A3021 RMK A01 T01100014  RH  051%=      5-min Rain = 0
KPD1 171714Z 03007KT 11/02 A3021 RMK A01 T01100015  RH  052%=      5-min Rain = 0
KPD1 171715Z 01008KT 11/02 A3021 RMK A01 T01120017  RH  052%=      5-min Rain = 0
KPD1 171716Z 01007KT 11/02 A3021 RMK A01 T01140017  RH  051%=      5-min Rain = 0
KPD1 171717Z 01008KT 12/02 A3021 RMK A01 T01150018  RH  051%=      5-min Rain = 0
KPD1 171718Z 00007KT 12/02 A3021 RMK A01 T01160016  RH  051%=      5-min Rain = 0
KPD1 171719Z 01008G14KT 12/02 A3021 RMK A01 T01150015  RH  050%=      5-min Rain = 0
KPD1 171720Z 35011KT 11/02 A3021 RMK A01 T01140016  RH  051%=      5-min Rain = 0
KPD1 171721Z 35011KT 11/02 A3021 RMK A01 T01140015  RH  050%=      5-min Rain = 0
KPD1 171722Z 01010KT 12/02 A3021 RMK A01 T01150015  RH  050%=      5-min Rain = 0
KPD1 171723Z 00013KT 12/01 A3021 RMK A01 T01160014  RH  050%=      5-min Rain = 0
KPD1 171724Z 02009KT 12/01 A3021 RMK A01 T01150013  RH  050%=      5-min Rain = 0
KPD1 171725Z 36010KT 11/01 A3021 RMK A01 T01140014  RH  050%=      5-min Rain = 0
KPD1 171726Z 00010KT 11/01 A3021 RMK A01 T01140014  RH  050%=      5-min Rain = 0
KPD1 171727Z 00013KT 12/01 A3021 RMK A01 T01150013  RH  050%=      5-min Rain = 0
KPD1 171728Z 02011KT 11/01 A3021 RMK A01 T01140012  RH  049%=      5-min Rain = 0
KPD1 171729Z 01011KT 11/01 A3021 RMK A01 T01130011  RH  049%=      5-min Rain = 0
KPD1 171730Z 00009KT 11/01 A3021 RMK A01 T01120012  RH  050%=      5-min Rain = 0
KPD1 171731Z 01008KT 11/01 A3021 RMK A01 T01120013  RH  050%=      5-min Rain = 0
KPD1 171732Z 02008KT 11/01 A3021 RMK A01 T01130013  RH  050%=      5-min Rain = 0
KPD1 171733Z 02011KT 12/02 A3021 RMK A01 T01150015  RH  050%=      5-min Rain = 0
KPD1 171734Z 01008KT 12/02 A3021 RMK A01 T01170015  RH  049%=      5-min Rain = 0
KPD1 171735Z 03008KT 12/01 A3021 RMK A01 T01160013  RH  049%=      5-min Rain = 0
KPD1 171736Z 03011G19KT 12/01 A3021 RMK A01 T01150013  RH  049%=      5-min Rain = 0
KPD1 171737Z 02008KT 11/01 A3021 RMK A01 T01130010  RH  049%=      5-min Rain = 0
KPD1 171738Z 01012KT 11/01 A3021 RMK A01 T01120012  RH  050%=      5-min Rain = 0
KPD1 171739Z 36010KT 11/01 A3021 RMK A01 T01140013  RH  050%=      5-min Rain = 0
KPD1 171740Z 01009KT 12/01 A3021 RMK A01 T01160014  RH  050%=      5-min Rain = 0
KPD1 171741Z 02012KT 12/02 A3021 RMK A01 T01170015  RH  049%=      5-min Rain = 0
KPD1 171742Z 02009KT 12/01 A3021 RMK A01 T01170013  RH  049%=      5-min Rain = 0
KPD1 171743Z 00009KT 12/01 A3021 RMK A01 T01170014  RH  049%=      5-min Rain = 0
KPD1 171744Z 04010G15KT 12/02 A3021 RMK A01 T01180015  RH  049%=      5-min Rain = 0
KPD1 171745Z 03010G16KT 12/01 A3021 RMK A01 T01190014  RH  049%=      5-min Rain = 0
KPD1 171746Z 03012G18KT 12/01 A3021 RMK A01 T01180014  RH  049%=      5-min Rain = 0
KPD1 171747Z 02011KT 12/01 A3021 RMK A01 T01170013  RH  049%=      5-min Rain = 0
KPD1 171748Z 36011KT 12/02 A3021 RMK A01 T01170015  RH  049%=      5-min Rain = 0
KPD1 171749Z 01013KT 12/02 A3021 RMK A01 T01190015  RH  049%=      5-min Rain = 0
KPD1 171750Z 00008G13KT 12/02 A3021 RMK A01 T01190015  RH  049%=      5-min Rain = 0
KPD1 171751Z 01011KT 12/02 A3021 RMK A01 T01210015  RH  048%=      5-min Rain = 0
KPD1 171752Z 01014KT 12/01 A3021 RMK A01 T01210013  RH  048%=      5-min Rain = 0
KPD1 171753Z 01012KT 12/01 A3021 RMK A01 T01200013  RH  048%=      5-min Rain = 0
KPD1 171754Z 35010KT 12/01 A3021 RMK A01 T01200014  RH  048%=      5-min Rain = 0
KPD1 171755Z 36011KT 12/01 A3021 RMK A01 T01200013  RH  048%=      5-min Rain = 0
KPD1 171756Z 34011G17KT 12/01 A3021 RMK A01 T01210014  RH  048%=      5-min Rain = 0
KPD1 171757Z 36010G16KT 12/02 A3021 RMK A01 T01240015  RH  047%=      5-min Rain = 0
KPD1 171758Z 36011KT 13/02 A3021 RMK A01 T01250016  RH  047%=      5-min Rain = 0
KPD1 171759Z 35012KT 13/02 A3021 RMK A01 T01260015  RH  047%=      5-min Rain = 0
KPD1 171800Z 35011G16KT 13/02 A302 RMK A01 T01260015  RH  046%=      5-min Rain = 0
KPD1 171801Z 36012KT 13/01 A302 RMK A01 T01260014  RH  046%=      5-min Rain = 0
KPD1 171802Z 01011KT 13/01 A302 RMK A01 T01250013  RH  046%=      5-min Rain = 0
KPD1 171803Z 35010KT 13/01 A302 RMK A01 T01250014  RH  047%=      5-min Rain = 0
KPD1 171804Z 36011KT 13/01 A302 RMK A01 T01250013  RH  046%=      5-min Rain = 0
KPD1 171805Z 01009KT 12/01 A302 RMK A01 T01230012  RH  047%=      5-min Rain = 0
KPD1 171806Z 01010KT 12/01 A302 RMK A01 T01220012  RH  047%=      5-min Rain = 0
KPD1 171807Z 02012KT 12/01 A302 RMK A01 T01220012  RH  047%=      5-min Rain = 0
KPD1 171808Z 00013KT 12/01 A302 RMK A01 T01220013  RH  047%=      5-min Rain = 0
KPD1 171809Z 01013KT 12/01 A302 RMK A01 T01220013  RH  047%=      5-min Rain = 0
KPD1 171810Z 01010KT 12/01 A302 RMK A01 T01210012  RH  047%=      5-min Rain = 0
KPD1 171811Z 00012KT 12/01 A302 RMK A01 T01210013  RH  048%=      5-min Rain = 0
KPD1 171812Z 01009G14KT 12/01 A302 RMK A01 T01210014  RH  048%=      5-min Rain = 0
KPD1 171813Z 02006KT 12/02 A302 RMK A01 T01240016  RH  048%=      5-min Rain = 0
KPD1 171814Z 01008G13KT 13/02 A302 RMK A01 T01270017  RH  047%=      5-min Rain = 0
KPD1 171815Z 01011KT 13/02 A302 RMK A01 T01290017  RH  047%=      5-min Rain = 0
KPD1 171816Z 00012KT 13/02 A302 RMK A01 T01280015  RH  046%=      5-min Rain = 0
KPD1 171817Z 01009KT 13/01 A302 RMK A01 T01260014  RH  046%=      5-min Rain = 0
KPD1 171818Z 35012KT 13/01 A302 RMK A01 T01250014  RH  047%=      5-min Rain = 0
KPD1 171819Z 34008G14KT 13/01 A302 RMK A01 T01260014  RH  047%=      5-min Rain = 0
KPD1 171820Z 35010KT 13/02 A302 RMK A01 T01260016  RH  047%=      5-min Rain = 0
KPD1 171821Z 00009KT 13/02 A302 RMK A01 T01270016  RH  047%=      5-min Rain = 0
KPD1 171822Z 01008KT 13/02 A302 RMK A01 T01280016  RH  046%=      5-min Rain = 0
KPD1 171823Z 01008KT 13/02 A302 RMK A01 T01280016  RH  047%=      5-min Rain = 0
KPD1 171824Z 02012KT 13/02 A302 RMK A01 T01280016  RH  046%=      5-min Rain = 0
KPD1 171825Z 01013KT 13/01 A302 RMK A01 T01260014  RH  047%=      5-min Rain = 0
KPD1 171826Z 36011KT 13/02 A302 RMK A01 T01260015  RH  047%=      5-min Rain = 0
KPD1 171827Z 36015KT 13/02 A3019 RMK A01 T01270016  RH  047%=      5-min Rain = 0
KPD1 171828Z 00015KT 13/02 A3019 RMK A01 T01290015  RH  046%=      5-min Rain = 0
KPD1 171829Z 35012KT 13/01 A3019 RMK A01 T01260013  RH  046%=      5-min Rain = 0
KPD1 171830Z 35009KT 13/01 A3019 RMK A01 T01250014  RH  047%=      5-min Rain = 0
KPD1 171831Z 00008KT 13/01 A3019 RMK A01 T01250014  RH  047%=      5-min Rain = 0
KPD1 171832Z 00008G13KT 13/01 A3019 RMK A01 T01250014  RH  047%=      5-min Rain = 0
KPD1 171833Z 36011G16KT 13/02 A3019 RMK A01 T01280016  RH  047%=      5-min Rain = 0
KPD1 171834Z 36010KT 13/02 A3019 RMK A01 T01290015  RH  046%=      5-min Rain = 0
KPD1 171835Z 34010KT 13/02 A3019 RMK A01 T01290016  RH  046%=      5-min Rain = 0
KPD1 171836Z 35011KT 13/02 A3019 RMK A01 T01310016  RH  045%=      5-min Rain = 0
KPD1 171837Z 35010KT 13/02 A3019 RMK A01 T01310015  RH  045%=      5-min Rain = 0
KPD1 171838Z 02009KT 13/02 A3019 RMK A01 T01310015  RH  045%=      5-min Rain = 0
KPD1 171839Z 01012KT 13/01 A3019 RMK A01 T01300013  RH  045%=      5-min Rain = 0
KPD1 171840Z 00010KT 13/01 A3019 RMK A01 T01280013  RH  046%=      5-min Rain = 0
KPD1 171841Z 02011KT 13/01 A3018 RMK A01 T01280014  RH  046%=      5-min Rain = 0
KPD1 171842Z 01006KT 13/01 A3018 RMK A01 T01270014  RH  046%=      5-min Rain = 0
KPD1 171843Z 36007KT 13/02 A3018 RMK A01 T01300018  RH  047%=      5-min Rain = 0
KPD1 171844Z 01009KT 13/02 A3018 RMK A01 T01340018  RH  045%=      5-min Rain = 0
KPD1 171845Z 01011KT 13/02 A3018 RMK A01 T01340015  RH  044%=      5-min Rain = 0
KPD1 171846Z 02011KT 13/01 A3018 RMK A01 T01320014  RH  045%=      5-min Rain = 0
KPD1 171847Z 35008KT 13/02 A3018 RMK A01 T01310015  RH  045%=      5-min Rain = 0
KPD1 171848Z 01008KT 13/02 A3018 RMK A01 T01310015  RH  045%=      5-min Rain = 0
KPD1 171849Z 01011KT 13/02 A3018 RMK A01 T01320016  RH  045%=      5-min Rain = 0
KPD1 171850Z 02009KT 13/01 A3018 RMK A01 T01320013  RH  044%=      5-min Rain = 0
KPD1 171851Z 01008KT 13/01 A3018 RMK A01 T01300013  RH  045%=      5-min Rain = 0
KPD1 171852Z 35008KT 13/02 A3018 RMK A01 T01300015  RH  046%=      5-min Rain = 0
KPD1 171853Z 01008KT 13/02 A3018 RMK A01 T01320016  RH  045%=      5-min Rain = 0
KPD1 171854Z 01009KT 13/02 A3018 RMK A01 T01330016  RH  045%=      5-min Rain = 0
KPD1 171855Z 01011KT 13/01 A3018 RMK A01 T01320014  RH  044%=      5-min Rain = 0
KPD1 171856Z 02010KT 13/01 A3018 RMK A01 T01310013  RH  044%=      5-min Rain = 0
KPD1 171857Z 02009KT 13/01 A3018 RMK A01 T01320013  RH  044%=      5-min Rain = 0
KPD1 171858Z 03009KT 13/01 A3017 RMK A01 T01300011  RH  044%=      5-min Rain = 0
KPD1 171859Z 02007KT 13/01 A3017 RMK A01 T01290011  RH  044%=      5-min Rain = 0
KPD1 171900Z 04008KT 13/01 A3017 RMK A01 T01290012  RH  045%=      5-min Rain = 0
KPD1 171901Z 02009KT 13/01 A3017 RMK A01 T01300012  RH  045%=      5-min Rain = 0
KPD1 171902Z 33010KT 13/01 A3017 RMK A01 T01300013  RH  045%=      5-min Rain = 0
KPD1 171903Z 33009KT 13/01 A3017 RMK A01 T01310013  RH  045%=      5-min Rain = 0
KPD1 171904Z 00009KT 13/01 A3017 RMK A01 T01320014  RH  045%=      5-min Rain = 0
KPD1 171905Z 01012G18KT 13/02 A3017 RMK A01 T01340015  RH  044%=      5-min Rain = 0
KPD1 171906Z 02010KT 14/01 A3017 RMK A01 T01350013  RH  044%=      5-min Rain = 0
KPD1 171907Z 02011KT 13/01 A3017 RMK A01 T01340013  RH  044%=      5-min Rain = 0
KPD1 171908Z 02009KT 13/01 A3016 RMK A01 T01320011  RH  044%=      5-min Rain = 0
KPD1 171909Z 02007KT 13/01 A3016 RMK A01 T01300011  RH  044%=      5-min Rain = 0
KPD1 171910Z 01010KT 13/01 A3016 RMK A01 T01310013  RH  045%=      5-min Rain = 0
KPD1 171911Z 34007KT 13/01 A3016 RMK A01 T01320013  RH  044%=      5-min Rain = 0
KPD1 171912Z 35009KT 13/02 A3016 RMK A01 T01340015  RH  044%=      5-min Rain = 0
KPD1 171913Z 36009KT 14/01 A3016 RMK A01 T01350013  RH  043%=      5-min Rain = 0
KPD1 171914Z 00007KT 14/01 A3016 RMK A01 T01350011  RH  043%=      5-min Rain = 0
KPD1 171915Z 34008G13KT 13/01 A3016 RMK A01 T01340012  RH  043%=      5-min Rain = 0
KPD1 171916Z 34009KT 14/01 A3016 RMK A01 T01360014  RH  043%=      5-min Rain = 0
KPD1 171917Z 34011KT 14/01 A3016 RMK A01 T01370013  RH  043%=      5-min Rain = 0
KPD1 171918Z 35008KT 14/01 A3016 RMK A01 T01370011  RH  042%=      5-min Rain = 0
KPD1 171919Z 36007KT 13/01 A3016 RMK A01 T01340011  RH  043%=      5-min Rain = 0
KPD1 171920Z 33007KT 14/01 A3016 RMK A01 T01350013  RH  044%=      5-min Rain = 0
KPD1 171921Z 35007KT 14/01 A3016 RMK A01 T01370013  RH  043%=      5-min Rain = 0
KPD1 171922Z 35007KT 14/01 A3016 RMK A01 T01380013  RH  043%=      5-min Rain = 0
KPD1 171923Z 35008KT 14/01 A3015 RMK A01 T01380012  RH  042%=      5-min Rain = 0
KPD1 171924Z 35006KT 14/01 A3015 RMK A01 T01390011  RH  042%=      5-min Rain = 0
KPD1 171925Z 02007KT 14/01 A3015 RMK A01 T01390013  RH  042%=      5-min Rain = 0
KPD1 171926Z 02009KT 14/01 A3015 RMK A01 T01410013  RH  042%=      5-min Rain = 0
KPD1 171927Z 02009KT 14/01 A3015 RMK A01 T01400012  RH  042%=      5-min Rain = 0
KPD1 171928Z 01006KT 14/01 A3015 RMK A01 T01400012  RH  042%=      5-min Rain = 0
KPD1 171929Z 35009KT 14/01 A3015 RMK A01 T01410013  RH  042%=      5-min Rain = 0
KPD1 171930Z 35009KT 14/01 A3015 RMK A01 T01420012  RH  041%=      5-min Rain = 0
KPD1 171931Z 35010KT 14/01 A3015 RMK A01 T01410010  RH  041%=      5-min Rain = 0
KPD1 171932Z 35010KT 14/01 A3015 RMK A01 T01410011  RH  041%=      5-min Rain = 0
KPD1 171933Z 34008KT 14/01 A3015 RMK A01 T01400009  RH  041%=      5-min Rain = 0
KPD1 171934Z 35008KT 14/01 A3014 RMK A01 T01390008  RH  041%=      5-min Rain = 0
KPD1 171935Z 01008KT 14/01 A3015 RMK A01 T01390010  RH  042%=      5-min Rain = 0
KPD1 171936Z 02009KT 14/01 A3014 RMK A01 T01390012  RH  042%=      5-min Rain = 0
KPD1 171937Z 01006KT 14/01 A3014 RMK A01 T01380010  RH  042%=      5-min Rain = 0
KPD1 171938Z 35005KT 14/01 A3014 RMK A01 T01370011  RH  042%=      5-min Rain = 0
KPD1 171939Z 32007KT 14/01 A3014 RMK A01 T01370012  RH  043%=      5-min Rain = 0
KPD1 171940Z 34006KT 14/01 A3014 RMK A01 T01380012  RH  042%=      5-min Rain = 0
KPD1 171941Z 01005KT 14/02 A3014 RMK A01 T01410016  RH  043%=      5-min Rain = 0
KPD1 171942Z 02009KT 14/01 A3014 RMK A01 T01440014  RH  041%=      5-min Rain = 0
KPD1 171943Z 01005KT 14/01 A3014 RMK A01 T01410010  RH  041%=      5-min Rain = 0
KPD1 171944Z 01006KT 14/01 A3014 RMK A01 T01410011  RH  041%=      5-min Rain = 0
KPD1 171945Z 04005KT 14/01 A3014 RMK A01 T01410010  RH  041%=      5-min Rain = 0
KPD1 171946Z 04005KT 14/01 A3014 RMK A01 T01420011  RH  041%=      5-min Rain = 0
KPD1 171947Z 35005KT 14/01 A3013 RMK A01 T01420011  RH  041%=      5-min Rain = 0
KPD1 171948Z 00005G10KT 14/01 A3013 RMK A01 T01430012  RH  041%=      5-min Rain = 0
KPD1 171949Z 34008KT 15/01 A3013 RMK A01 T01450013  RH  041%=      5-min Rain = 0
KPD1 171950Z 35008KT 14/01 A3013 RMK A01 T01440010  RH  040%=      5-min Rain = 0
KPD1 171951Z 34007KT 14/01 A3013 RMK A01 T01430010  RH  040%=      5-min Rain = 0
KPD1 171952Z 33009G14KT 14/01 A3013 RMK A01 T01440012  RH  041%=      5-min Rain = 0
KPD1 171953Z 33009KT 14/01 A3013 RMK A01 T01440010  RH  040%=      5-min Rain = 0
KPD1 171954Z 34010KT 14/01 A3013 RMK A01 T01430008  RH  040%=      5-min Rain = 0
KPD1 171955Z 34006KT 14/01 A3013 RMK A01 T01410010  RH  041%=      5-min Rain = 0
KPD1 171956Z 34008KT 14/01 A3013 RMK A01 T01440013  RH  041%=      5-min Rain = 0
KPD1 171957Z 35007KT 14/01 A3013 RMK A01 T01440011  RH  040%=      5-min Rain = 0
KPD1 171958Z 00004KT 14/01 A3013 RMK A01 T01420011  RH  041%=      5-min Rain = 0
KPD1 171959Z 01002KT 14/01 A3013 RMK A01 T01420010  RH  041%=      5-min Rain = 0
KPD1 172000Z 34006KT 14/01 A3013 RMK A01 T01420012  RH  041%=      5-min Rain = 0
KPD1 172001Z 33007KT 14/01 A3013 RMK A01 T01430012  RH  041%=      5-min Rain = 0
KPD1 172002Z 35007KT 14/01 A3013 RMK A01 T01430011  RH  041%=      5-min Rain = 0
KPD1 172003Z 34005KT 14/01 A3012 RMK A01 T01440011  RH  040%=      5-min Rain = 0
KPD1 172004Z 35005KT 14/01 A3012 RMK A01 T01440010  RH  040%=      5-min Rain = 0
KPD1 172005Z 34007KT 14/01 A3012 RMK A01 T01440011  RH  040%=      5-min Rain = 0
KPD1 172006Z 35010KT 15/01 A3012 RMK A01 T01450010  RH  040%=      5-min Rain = 0
KPD1 172007Z 35007KT 15/01 A3012 RMK A01 T01450008  RH  039%=      5-min Rain = 0
KPD1 172008Z 33006KT 14/01 A3012 RMK A01 T01440009  RH  040%=      5-min Rain = 0
KPD1 172009Z 34007KT 14/01 A3012 RMK A01 T01440009  RH  040%=      5-min Rain = 0
KPD1 172010Z 34003KT 15/01 A3012 RMK A01 T01450008  RH  039%=      5-min Rain = 0
KPD1 172011Z 30003KT 14/01 A3012 RMK A01 T01430005  RH  039%=      5-min Rain = 0
KPD1 172012Z 33005KT 14/01 A3012 RMK A01 T01420007  RH  040%=      5-min Rain = 0
KPD1 172013Z 32006KT 14/01 A3012 RMK A01 T01420008  RH  040%=      5-min Rain = 0
KPD1 172014Z 32009KT 14/01 A3012 RMK A01 T01430008  RH  040%=      5-min Rain = 0
KPD1 172015Z 34004KT 14/01 A3012 RMK A01 T01440010  RH  040%=      5-min Rain = 0
KPD1 172016Z 00006KT 15/01 A3012 RMK A01 T01470011  RH  040%=      5-min Rain = 0
KPD1 172017Z 00006KT 15/01 A3012 RMK A01 T01480009  RH  039%=      5-min Rain = 0
KPD1 172018Z 01005KT 15/01 A3012 RMK A01 T01470009  RH  039%=      5-min Rain = 0
KPD1 172019Z 03006KT 15/01 A3012 RMK A01 T01470010  RH  039%=      5-min Rain = 0
KPD1 172020Z 06003KT 15/01 A3012 RMK A01 T01460008  RH  039%=      5-min Rain = 0
KPD1 172021Z 04005KT 15/01 A3012 RMK A01 T01460007  RH  039%=      5-min Rain = 0
KPD1 172022Z 01004KT 15/01 A3012 RMK A01 T01450008  RH  039%=      5-min Rain = 0
KPD1 172023Z 35009KT 15/01 A3012 RMK A01 T01460009  RH  039%=      5-min Rain = 0
KPD1 172024Z 36008KT 15/01 A3012 RMK A01 T01470008  RH  039%=      5-min Rain = 0
KPD1 172025Z 35006KT 15/01 A3012 RMK A01 T01470007  RH  038%=      5-min Rain = 0
KPD1 172026Z 36005KT 15/01 A3012 RMK A01 T01480006  RH  038%=      5-min Rain = 0
KPD1 172027Z 34008KT 15/01 A3012 RMK A01 T01470005  RH  038%=      5-min Rain = 0
KPD1 172028Z 32007KT 15/00 A3011 RMK A01 T01460001  RH  037%=      5-min Rain = 0
KPD1 172029Z 33007KT 15/00 A3011 RMK A01 T01450001  RH  037%=      5-min Rain = 0
KPD1 172030Z 33006KT 15/00 A3011 RMK A01 T01450002  RH  038%=      5-min Rain = 0
KPD1 172031Z 34006KT 15/00 A3011 RMK A01 T01460002  RH  037%=      5-min Rain = 0
KPD1 172032Z 34004KT 15/00 A3011 RMK A01 T01460001  RH  037%=      5-min Rain = 0
KPD1 172033Z 31006KT 15/00 A3011 RMK A01 T01460004  RH  038%=      5-min Rain = 0
KPD1 172034Z 29004KT 15/01 A3011 RMK A01 T01480006  RH  038%=      5-min Rain = 0
KPD1 172035Z 31004KT 15/01 A3011 RMK A01 T01460005  RH  038%=      5-min Rain = 0
KPD1 172036Z 32002KT 15/01 A3011 RMK A01 T01450005  RH  039%=      5-min Rain = 0
KPD1 172037Z 35005KT 15/01 A3011 RMK A01 T01450007  RH  039%=      5-min Rain = 0
KPD1 172038Z 33003KT 15/01 A3011 RMK A01 T01470008  RH  039%=      5-min Rain = 0
KPD1 172039Z 33005KT 15/01 A3011 RMK A01 T01470007  RH  039%=      5-min Rain = 0
KPD1 172040Z 32004KT 15/01 A3011 RMK A01 T01460006  RH  038%=      5-min Rain = 0
KPD1 172041Z 32003KT 15/01 A3011 RMK A01 T01460006  RH  038%=      5-min Rain = 0
KPD1 172042Z 33002KT 15/01 A3011 RMK A01 T01460007  RH  039%=      5-min Rain = 0
KPD1 172043Z 28004KT 15/01 A3011 RMK A01 T01460006  RH  038%=      5-min Rain = 0
KPD1 172044Z 34007KT 15/01 A3011 RMK A01 T01470005  RH  038%=      5-min Rain = 0
KPD1 172045Z 35006KT 15/01 A3011 RMK A01 T01490007  RH  038%=      5-min Rain = 0
KPD1 172046Z 00004KT 15/01 A3011 RMK A01 T01490005  RH  037%=      5-min Rain = 0
KPD1 172047Z 35003KT 15/01 A3011 RMK A01 T01480005  RH  038%=      5-min Rain = 0
KPD1 172048Z 36007KT 15/01 A3011 RMK A01 T01490005  RH  037%=      5-min Rain = 0
KPD1 172049Z 35008KT 15/00 A3011 RMK A01 T01500004  RH  037%=      5-min Rain = 0
KPD1 172050Z 35008KT 15/00 A3011 RMK A01 T01500004  RH  037%=      5-min Rain = 0
KPD1 172051Z 35007KT 15/00 A3011 RMK A01 T01500003  RH  037%=      5-min Rain = 0
KPD1 172052Z 02005KT 15/00 A3011 RMK A01 T01490003  RH  037%=      5-min Rain = 0
KPD1 172053Z 35004KT 15/00 A3011 RMK A01 T01490004  RH  037%=      5-min Rain = 0
KPD1 172054Z 34005KT 15/00 A3011 RMK A01 T01500002  RH  036%=      5-min Rain = 0
KPD1 172055Z 35004KT 15/00 A3011 RMK A01 T01490001  RH  036%=      5-min Rain = 0
KPD1 172056Z 34006KT 15/00 A3011 RMK A01 T01490002  RH  037%=      5-min Rain = 0
KPD1 172057Z 33002KT 15/00 A3011 RMK A01 T01490002  RH  037%=      5-min Rain = 0
KPD1 172058Z 32002KT 15/00 A3011 RMK A01 T01480003  RH  037%=      5-min Rain = 0
KPD1 172059Z 33006KT 15/00 A3011 RMK A01 T01490003  RH  037%=      5-min Rain = 0
KPD1 172100Z 30003KT 15/00 A3011 RMK A01 T01480002  RH  037%=      5-min Rain = 0
KPD1 172101Z 28003KT 15/00 A301 RMK A01 T01470004  RH  037%=      5-min Rain = 0
KPD1 172102Z 30001KT 15/00 A301 RMK A01 T01470002  RH  037%=      5-min Rain = 0
KPD1 172103Z 08003KT 15/00 A301 RMK A01 T01480004  RH  037%=      5-min Rain = 0
KPD1 172104Z 07003KT 15/01 A301 RMK A01 T01500005  RH  037%=      5-min Rain = 0
KPD1 172105Z 04004KT 15/01 A301 RMK A01 T01510005  RH  037%=      5-min Rain = 0
KPD1 172106Z 34002KT 15/00 A301 RMK A01 T01520004  RH  036%=      5-min Rain = 0
KPD1 172107Z 01003KT 15/00 A301 RMK A01 T01510002  RH  036%=      5-min Rain = 0
KPD1 172108Z 02005KT 15/00 A301 RMK A01 T01510003  RH  037%=      5-min Rain = 0
KPD1 172109Z 03007KT 15/00 A301 RMK A01 T01510003  RH  036%=      5-min Rain = 0
KPD1 172110Z 36006KT 15/00 A301 RMK A01 T01510000  RH  036%=      5-min Rain = 0
KPD1 172111Z 01005KT 15/00 A301 RMK A01 T01510000  RH  036%=      5-min Rain = 0
KPD1 172112Z 00004KT 15/M00 A301 RMK A01 T01501001  RH  035%=      5-min Rain = 0
KPD1 172113Z 35003KT 15/M00 A301 RMK A01 T01491001  RH  036%=      5-min Rain = 0
KPD1 172114Z 34003KT 15/00 A301 RMK A01 T01490000  RH  036%=      5-min Rain = 0
KPD1 172115Z 33002KT 15/M00 A301 RMK A01 T01481001  RH  036%=      5-min Rain = 0
KPD1 172116Z 32005KT 15/00 A301 RMK A01 T014800-0  RH  036%=      5-min Rain = 0
KPD1 172117Z 33004KT 15/00 A301 RMK A01 T014800-0  RH  036%=      5-min Rain = 0
KPD1 172118Z 33005KT 15/M00 A301 RMK A01 T01481001  RH  036%=      5-min Rain = 0
KPD1 172119Z 31004KT 15/M00 A301 RMK A01 T01471003  RH  036%=      5-min Rain = 0
KPD1 172120Z 33004KT 15/M00 A301 RMK A01 T01471003  RH  036%=      5-min Rain = 0
KPD1 172121Z 35004KT 15/M00 A301 RMK A01 T01461003  RH  036%=      5-min Rain = 0
KPD1 172122Z 34002KT 15/M00 A301 RMK A01 T01471003  RH  036%=      5-min Rain = 0
KPD1 172123Z 36001KT 15/M00 A301 RMK A01 T01461002  RH  036%=      5-min Rain = 0
KPD1 172124Z 27001KT 15/M00 A301 RMK A01 T01471002  RH  036%=      5-min Rain = 0
KPD1 172125Z 25000KT 15/00 A301 RMK A01 T01490000  RH  036%=      5-min Rain = 0
KPD1 172126Z 33004KT 15/00 A301 RMK A01 T01530002  RH  036%=      5-min Rain = 0
KPD1 172127Z 34003KT 16/00 A301 RMK A01 T01550002  RH  035%=      5-min Rain = 0
KPD1 172128Z 30002KT 15/00 A301 RMK A01 T01530001  RH  035%=      5-min Rain = 0
KPD1 172129Z 31003KT 15/00 A301 RMK A01 T01530001  RH  036%=      5-min Rain = 0
KPD1 172130Z 33004KT 15/00 A301 RMK A01 T01520001  RH  036%=      5-min Rain = 0
KPD1 172131Z 32006KT 15/00 A301 RMK A01 T01520002  RH  036%=      5-min Rain = 0
KPD1 172132Z 34005KT 15/00 A301 RMK A01 T01520000  RH  036%=      5-min Rain = 0
KPD1 172133Z 30004KT 15/00 A301 RMK A01 T015200-0  RH  035%=      5-min Rain = 0
KPD1 172134Z 28001KT 15/M00 A301 RMK A01 T01511001  RH  035%=      5-min Rain = 0
KPD1 172135Z 30002KT 15/00 A301 RMK A01 T01510000  RH  036%=      5-min Rain = 0
KPD1 172136Z 34004KT 15/00 A301 RMK A01 T01510000  RH  036%=      5-min Rain = 0
KPD1 172137Z 01001KT 15/00 A301 RMK A01 T01520000  RH  035%=      5-min Rain = 0
KPD1 172138Z 02000KT 15/00 A301 RMK A01 T015200-0  RH  035%=      5-min Rain = 0
KPD1 172139Z 31000KT 15/00 A301 RMK A01 T01540002  RH  035%=      5-min Rain = 0
KPD1 172140Z 32002KT 16/00 A301 RMK A01 T01550000  RH  035%=      5-min Rain = 0
KPD1 172141Z 34002KT 16/M00 A301 RMK A01 T01551002  RH  034%=      5-min Rain = 0
KPD1 172142Z 33004KT 16/M00 A301 RMK A01 T01551002  RH  034%=      5-min Rain = 0
KPD1 172143Z 34005KT 16/00 A301 RMK A01 T015500-0  RH  035%=      5-min Rain = 0
KPD1 172144Z 34004KT 16/00 A301 RMK A01 T01560000  RH  035%=      5-min Rain = 0
KPD1 172145Z 36003KT 16/M00 A301 RMK A01 T01551001  RH  034%=      5-min Rain = 0
KPD1 172146Z 35003KT 15/M00 A301 RMK A01 T01541002  RH  034%=      5-min Rain = 0
KPD1 172147Z 33002KT 15/M00 A301 RMK A01 T01521004  RH  034%=      5-min Rain = 0
KPD1 172148Z 33001KT 15/M00 A301 RMK A01 T01511004  RH  035%=      5-min Rain = 0
KPD1 172149Z 23000KT 15/M00 A301 RMK A01 T01511004  RH  035%=      5-min Rain = 0
KPD1 172150Z 03001KT 15/M00 A301 RMK A01 T01531004  RH  034%=      5-min Rain = 0
KPD1 172151Z 04002KT 15/M01 A301 RMK A01 T01541005  RH  034%=      5-min Rain = 0
KPD1 172152Z 07002KT 15/M00 A301 RMK A01 T01541003  RH  034%=      5-min Rain = 0
KPD1 172153Z 08002KT 15/M00 A301 RMK A01 T01531003  RH  034%=      5-min Rain = 0
KPD1 172154Z 08001KT 15/M00 A301 RMK A01 T01521003  RH  035%=      5-min Rain = 0
KPD1 172155Z 07001KT 15/M00 A301 RMK A01 T01521002  RH  035%=      5-min Rain = 0
KPD1 172156Z 03001KT 15/M00 A301 RMK A01 T01531002  RH  035%=      5-min Rain = 0
KPD1 172157Z 03001KT 15/M00 A301 RMK A01 T01531002  RH  035%=      5-min Rain = 0
KPD1 172158Z 08002KT 15/M00 A301 RMK A01 T01531002  RH  034%=      5-min Rain = 0
KPD1 172159Z 09000KT 15/M00 A301 RMK A01 T01531003  RH  034%=      5-min Rain = 0
KPD1 172200Z 30002KT 15/M00 A301 RMK A01 T01531003  RH  034%=      5-min Rain = 0
KPD1 172201Z 28003KT 15/M00 A301 RMK A01 T01531002  RH  035%=      5-min Rain = 0
KPD1 172202Z 24002KT 15/M00 A301 RMK A01 T01541001  RH  035%=      5-min Rain = 0
KPD1 172203Z 24003KT 16/M00 A301 RMK A01 T01551001  RH  035%=      5-min Rain = 0
KPD1 172204Z 23001KT 15/M00 A301 RMK A01 T01531002  RH  035%=      5-min Rain = 0
KPD1 172205Z 24000KT 15/M00 A301 RMK A01 T01531001  RH  035%=      5-min Rain = 0
KPD1 172206Z 35002KT 15/00 A301 RMK A01 T01540000  RH  035%=      5-min Rain = 0
KPD1 172207Z 30005KT 15/00 A301 RMK A01 T01540000  RH  035%=      5-min Rain = 0
KPD1 172208Z 30004KT 15/M00 A301 RMK A01 T01531001  RH  035%=      5-min Rain = 0
KPD1 172209Z 30002KT 15/M00 A301 RMK A01 T01521001  RH  035%=      5-min Rain = 0
KPD1 172210Z 32001KT 15/M00 A301 RMK A01 T01521002  RH  035%=      5-min Rain = 0
KPD1 172211Z 33002KT 15/M00 A301 RMK A01 T01531001  RH  035%=      5-min Rain = 0
KPD1 172212Z 34002KT 15/M00 A301 RMK A01 T01541001  RH  035%=      5-min Rain = 0
KPD1 172213Z 00001KT 15/M00 A301 RMK A01 T01541001  RH  035%=      5-min Rain = 0
KPD1 172214Z 35001KT 15/M00 A301 RMK A01 T01521002  RH  035%=      5-min Rain = 0
KPD1 172215Z 00002KT 15/M00 A301 RMK A01 T01521001  RH  035%=      5-min Rain = 0
KPD1 172216Z 02004KT 15/00 A301 RMK A01 T015200-0  RH  035%=      5-min Rain = 0
KPD1 172217Z 05004KT 15/M00 A301 RMK A01 T01501001  RH  036%=      5-min Rain = 0
KPD1 172218Z 00003KT 15/00 A301 RMK A01 T015000-0  RH  036%=      5-min Rain = 0
KPD1 172219Z 35004KT 15/00 A301 RMK A01 T01500000  RH  036%=      5-min Rain = 0
KPD1 172220Z 35003KT 15/00 A301 RMK A01 T015000-0  RH  036%=      5-min Rain = 0
KPD1 172221Z 34003KT 15/00 A301 RMK A01 T01500000  RH  036%=      5-min Rain = 0
KPD1 172222Z 33004KT 15/M00 A301 RMK A01 T01501001  RH  036%=      5-min Rain = 0
KPD1 172223Z 33005KT 15/M00 A301 RMK A01 T01491002  RH  035%=      5-min Rain = 0
KPD1 172224Z 34006KT 15/M00 A301 RMK A01 T01481003  RH  036%=      5-min Rain = 0
KPD1 172225Z 32004KT 15/M00 A301 RMK A01 T01481002  RH  036%=      5-min Rain = 0
KPD1 172226Z 32003KT 15/M00 A301 RMK A01 T01481001  RH  036%=      5-min Rain = 0
KPD1 172227Z 32003KT 15/M00 A301 RMK A01 T01481001  RH  036%=      5-min Rain = 0
KPD1 172228Z 31003KT 15/M00 A3011 RMK A01 T01481001  RH  036%=      5-min Rain = 0
KPD1 172229Z 31004KT 15/M00 A3011 RMK A01 T01481001  RH  036%=      5-min Rain = 0
KPD1 172230Z 30003KT 15/M00 A3011 RMK A01 T01481001  RH  036%=      5-min Rain = 0
KPD1 172231Z 29004KT 15/M00 A3011 RMK A01 T01491001  RH  036%=      5-min Rain = 0
KPD1 172232Z 30003KT 15/M00 A3011 RMK A01 T01481003  RH  036%=      5-min Rain = 0
KPD1 172233Z 33002KT 15/M00 A3011 RMK A01 T01481003  RH  036%=      5-min Rain = 0
KPD1 172234Z 30004KT 15/M00 A3011 RMK A01 T01481002  RH  036%=      5-min Rain = 0
KPD1 172235Z 29004KT 15/M00 A3011 RMK A01 T01471002  RH  036%=      5-min Rain = 0
KPD1 172236Z 28001KT 15/M00 A3011 RMK A01 T01471002  RH  036%=      5-min Rain = 0
KPD1 172237Z 28002KT 15/M00 A3011 RMK A01 T01471002  RH  036%=      5-min Rain = 0
KPD1 172238Z 29003KT 15/M00 A3011 RMK A01 T01481001  RH  036%=      5-min Rain = 0
KPD1 172239Z 30002KT 15/M00 A3011 RMK A01 T01481001  RH  036%=      5-min Rain = 0
KPD1 172240Z 28003KT 15/M00 A3011 RMK A01 T01481001  RH  036%=      5-min Rain = 0
KPD1 172241Z 28002KT 15/M00 A3011 RMK A01 T01481001  RH  036%=      5-min Rain = 0
KPD1 172242Z 23000KT 15/M00 A3011 RMK A01 T01481001  RH  036%=      5-min Rain = 0
KPD1 172243Z 24001KT 15/M00 A3011 RMK A01 T01491001  RH  036%=      5-min Rain = 0
KPD1 172244Z 28004KT 15/M00 A3011 RMK A01 T01491001  RH  036%=      5-min Rain = 0
KPD1 172245Z 28005KT 15/M00 A3011 RMK A01 T01491001  RH  036%=      5-min Rain = 0
KPD1 172246Z 29005KT 15/00 A3011 RMK A01 T01490000  RH  036%=      5-min Rain = 0
KPD1 172247Z 29004KT 15/00 A3011 RMK A01 T01480001  RH  037%=      5-min Rain = 0
KPD1 172248Z 28003KT 15/00 A3011 RMK A01 T01470000  RH  037%=      5-min Rain = 0
KPD1 172249Z 28002KT 15/00 A3011 RMK A01 T01470000  RH  037%=      5-min Rain = 0
KPD1 172250Z 29002KT 15/M00 A3011 RMK A01 T01471001  RH  036%=      5-min Rain = 0
KPD1 172251Z 29002KT 15/M00 A3011 RMK A01 T01471001  RH  036%=      5-min Rain = 0
KPD1 172252Z 26002KT 15/00 A3011 RMK A01 T014700-0  RH  037%=      5-min Rain = 0
KPD1 172253Z 26002KT 15/M00 A3011 RMK A01 T01471001  RH  036%=      5-min Rain = 0
KPD1 172254Z 28001KT 15/00 A3011 RMK A01 T014700-0  RH  036%=      5-min Rain = 0
KPD1 172255Z 29003KT 15/M00 A3011 RMK A01 T01481001  RH  036%=      5-min Rain = 0
KPD1 172256Z 31003KT 15/M00 A3011 RMK A01 T01471001  RH  036%=      5-min Rain = 0
KPD1 172257Z 30003KT 15/M00 A3011 RMK A01 T01461001  RH  037%=      5-min Rain = 0
KPD1 172258Z 29004KT 15/M00 A3011 RMK A01 T01451002  RH  036%=      5-min Rain = 0
KPD1 172259Z 29004KT 15/M00 A3011 RMK A01 T01451004  RH  036%=      5-min Rain = 0
KPD1 172300Z 29003KT 14/M01 A3011 RMK A01 T01441005  RH  036%=      5-min Rain = 0
KPD1 172301Z 30003KT 14/M01 A3011 RMK A01 T01441005  RH  036%=      5-min Rain = 0
KPD1 172302Z 31002KT 14/M01 A3011 RMK A01 T01431005  RH  036%=      5-min Rain = 0
KPD1 172303Z 29003KT 14/M00 A301 RMK A01 T01431004  RH  036%=      5-min Rain = 0
KPD1 172304Z 28003KT 14/M00 A301 RMK A01 T01431004  RH  036%=      5-min Rain = 0
KPD1 172305Z 28003KT 14/M00 A301 RMK A01 T01431004  RH  036%=      5-min Rain = 0
KPD1 172306Z 28003KT 14/M00 A301 RMK A01 T01431004  RH  036%=      5-min Rain = 0
KPD1 172307Z 29002KT 14/M00 A301 RMK A01 T01431004  RH  036%=      5-min Rain = 0
KPD1 172308Z 28002KT 14/M00 A301 RMK A01 T01431004  RH  036%=      5-min Rain = 0
KPD1 172309Z 28002KT 14/M00 A301 RMK A01 T01431004  RH  037%=      5-min Rain = 0
KPD1 172310Z 28003KT 14/M00 A301 RMK A01 T01421004  RH  037%=      5-min Rain = 0
KPD1 172311Z 27003KT 14/M01 A301 RMK A01 T01421005  RH  037%=      5-min Rain = 0
KPD1 172312Z 26003KT 14/M00 A301 RMK A01 T01411004  RH  037%=      5-min Rain = 0
KPD1 172313Z 26003KT 14/M00 A301 RMK A01 T01411004  RH  037%=      5-min Rain = 0
KPD1 172314Z 26003KT 14/M00 A301 RMK A01 T01411004  RH  037%=      5-min Rain = 0
KPD1 172315Z 26003KT 14/M00 A301 RMK A01 T01421004  RH  037%=      5-min Rain = 0
KPD1 172316Z 26003KT 14/M00 A301 RMK A01 T01411004  RH  037%=      5-min Rain = 0
KPD1 172317Z 26002KT 14/M01 A301 RMK A01 T01411005  RH  037%=      5-min Rain = 0
KPD1 172318Z 26003KT 14/M01 A301 RMK A01 T01411005  RH  037%=      5-min Rain = 0
KPD1 172319Z 26002KT 14/M01 A301 RMK A01 T01401005  RH  037%=      5-min Rain = 0
KPD1 172320Z 27002KT 14/M00 A301 RMK A01 T01401004  RH  037%=      5-min Rain = 0
KPD1 172321Z 27002KT 14/M00 A301 RMK A01 T01391004  RH  037%=      5-min Rain = 0
KPD1 172322Z 27002KT 14/M00 A301 RMK A01 T01381004  RH  038%=      5-min Rain = 0
KPD1 172323Z 27002KT 14/M00 A301 RMK A01 T01381003  RH  038%=      5-min Rain = 0
KPD1 172324Z 27002KT 14/M00 A301 RMK A01 T01371003  RH  038%=      5-min Rain = 0
KPD1 172325Z 27002KT 14/M00 A301 RMK A01 T01371002  RH  038%=      5-min Rain = 0
KPD1 172326Z 27002KT 14/M00 A301 RMK A01 T01371002  RH  038%=      5-min Rain = 0
KPD1 172327Z 26002KT 14/M00 A301 RMK A01 T01361002  RH  039%=      5-min Rain = 0
KPD1 172328Z 26002KT 14/M00 A301 RMK A01 T01361002  RH  039%=      5-min Rain = 0
KPD1 172329Z 26002KT 14/M00 A3011 RMK A01 T01351002  RH  039%=      5-min Rain = 0
KPD1 172330Z 25002KT 14/M00 A3011 RMK A01 T01351002  RH  039%=      5-min Rain = 0
KPD1 172331Z 25002KT 13/M00 A3011 RMK A01 T01341003  RH  039%=      5-min Rain = 0
KPD1 172332Z 25002KT 13/M00 A3011 RMK A01 T01331004  RH  039%=      5-min Rain = 0
KPD1 172333Z 25002KT 13/M01 A3011 RMK A01 T01321005  RH  039%=      5-min Rain = 0
KPD1 172334Z 25002KT 13/M01 A3011 RMK A01 T01311005  RH  039%=      5-min Rain = 0
KPD1 172335Z 26002KT 13/M01 A3011 RMK A01 T01291006  RH  039%=      5-min Rain = 0
KPD1 172336Z 26002KT 13/M01 A3011 RMK A01 T01281006  RH  039%=      5-min Rain = 0
KPD1 172337Z 26002KT 13/M01 A3011 RMK A01 T01271006  RH  040%=      5-min Rain = 0
KPD1 172338Z 25002KT 13/M01 A3011 RMK A01 T01261006  RH  040%=      5-min Rain = 0
KPD1 172339Z 24002KT 12/M01 A3011 RMK A01 T01241006  RH  040%=      5-min Rain = 0
KPD1 172340Z 24002KT 12/M01 A3011 RMK A01 T01231007  RH  041%=      5-min Rain = 0
KPD1 172341Z 24002KT 12/M01 A3011 RMK A01 T01211008  RH  041%=      5-min Rain = 0
KPD1 172342Z 24002KT 12/M01 A3011 RMK A01 T01201007  RH  041%=      5-min Rain = 0
KPD1 172343Z 23002KT 12/M01 A301 RMK A01 T01181007  RH  042%=      5-min Rain = 0
KPD1 172344Z 23003KT 12/M01 A301 RMK A01 T01161008  RH  042%=      5-min Rain = 0
KPD1 172345Z 22003KT 12/M01 A3011 RMK A01 T01151008  RH  043%=      5-min Rain = 0
KPD1 172346Z 22003KT 11/M01 A3011 RMK A01 T01141008  RH  043%=      5-min Rain = 0
KPD1 172347Z 22003KT 11/M01 A3011 RMK A01 T01131007  RH  043%=      5-min Rain = 0
KPD1 172348Z 22003KT 11/M01 A301 RMK A01 T01121006  RH  044%=      5-min Rain = 0
KPD1 172349Z 22003KT 11/M01 A301 RMK A01 T01111007  RH  044%=      5-min Rain = 0
KPD1 172350Z 21003KT 11/M01 A301 RMK A01 T01111007  RH  044%=      5-min Rain = 0
KPD1 172351Z 21003KT 11/M01 A301 RMK A01 T01101007  RH  044%=      5-min Rain = 0
KPD1 172352Z 21003KT 11/M01 A301 RMK A01 T01091006  RH  045%=      5-min Rain = 0
KPD1 172353Z 22003KT 11/M01 A301 RMK A01 T01081007  RH  045%=      5-min Rain = 0
KPD1 172354Z 22003KT 11/M01 A301 RMK A01 T01081006  RH  045%=      5-min Rain = 0
KPD1 172355Z 22003KT 11/M01 A301 RMK A01 T01081006  RH  045%=      5-min Rain = 0
KPD1 172356Z 22003KT 11/M01 A301 RMK A01 T01071006  RH  045%=      5-min Rain = 0
KPD1 172357Z 22003KT 11/M01 A301 RMK A01 T01071006  RH  046%=      5-min Rain = 0
KPD1 172358Z 22003KT 11/M01 A301 RMK A01 T01061006  RH  046%=      5-min Rain = 0
KPD1 172359Z 23002KT 11/M01 A301 RMK A01 T01061006  RH  046%=      5-min Rain = 0
KPD1 180000Z 23002KT 11/M01 A301 RMK A01 T01061006  RH  046%=      5-min Rain = 0
KPD1 180001Z 23002KT 11/M01 A301 RMK A01 T01051006  RH  046%=      5-min Rain = 0
KPD1 180002Z 23002KT 11/M01 A301 RMK A01 T01051005  RH  046%=      5-min Rain = 0
KPD1 180003Z 23002KT 11/M01 A301 RMK A01 T01051005  RH  046%=      5-min Rain = 0
KPD1 180004Z 23002KT 11/M01 A301 RMK A01 T01051005  RH  046%=      5-min Rain = 0
KPD1 180005Z 23003KT 11/M01 A301 RMK A01 T01051006  RH  046%=      5-min Rain = 0
KPD1 180006Z 24002KT 11/M01 A301 RMK A01 T01051005  RH  046%=      5-min Rain = 0
KPD1 180007Z 24003KT 11/M01 A301 RMK A01 T01051006  RH  046%=      5-min Rain = 0
KPD1 180008Z 24003KT 11/M01 A301 RMK A01 T01061006  RH  046%=      5-min Rain = 0
KPD1 180009Z 24003KT 11/M01 A301 RMK A01 T01061006  RH  046%=      5-min Rain = 0
KPD1 180010Z 24003KT 11/M01 A301 RMK A01 T01061006  RH  046%=      5-min Rain = 0
KPD1 180011Z 24003KT 11/M01 A301 RMK A01 T01061006  RH  046%=      5-min Rain = 0
KPD1 180012Z 24003KT 11/M01 A301 RMK A01 T01061005  RH  046%=      5-min Rain = 0
KPD1 180013Z 23003KT 11/M01 A301 RMK A01 T01061006  RH  046%=      5-min Rain = 0
KPD1 180014Z 23003KT 11/M01 A301 RMK A01 T01061006  RH  046%=      5-min Rain = 0
KPD1 180015Z 24003KT 11/M01 A301 RMK A01 T01051006  RH  046%=      5-min Rain = 0
KPD1 180016Z 24003KT 11/M01 A301 RMK A01 T01051006  RH  046%=      5-min Rain = 0
KPD1 180017Z 25004KT 11/M01 A3011 RMK A01 T01051006  RH  046%=      5-min Rain = 0
KPD1 180018Z 25004KT 11/M01 A3011 RMK A01 T01051006  RH  046%=      5-min Rain = 0
KPD1 180019Z 24003KT 10/M01 A3011 RMK A01 T01041006  RH  046%=      5-min Rain = 0
KPD1 180020Z 24004KT 10/M01 A3011 RMK A01 T01041006  RH  046%=      5-min Rain = 0
KPD1 180021Z 24004KT 10/M01 A3011 RMK A01 T01041007  RH  046%=      5-min Rain = 0
KPD1 180022Z 24004KT 10/M01 A3011 RMK A01 T01031007  RH  046%=      5-min Rain = 0
KPD1 180023Z 25005KT 10/M01 A3011 RMK A01 T01031007  RH  046%=      5-min Rain = 0
KPD1 180024Z 24004KT 10/M01 A3011 RMK A01 T01021007  RH  046%=      5-min Rain = 0
KPD1 180025Z 24004KT 10/M01 A301 RMK A01 T01021007  RH  047%=      5-min Rain = 0
KPD1 180026Z 24004KT 10/M01 A301 RMK A01 T01011008  RH  047%=      5-min Rain = 0
KPD1 180027Z 24005KT 10/M01 A301 RMK A01 T01011008  RH  047%=      5-min Rain = 0
KPD1 180028Z 25005KT 10/M01 A301 RMK A01 T01001009  RH  047%=      5-min Rain = 0
KPD1 180029Z 25004KT 10/M01 A301 RMK A01 T01001009  RH  047%=      5-min Rain = 0
KPD1 180030Z 25004KT 10/M01 A301 RMK A01 T00991009  RH  047%=      5-min Rain = 0
KPD1 180031Z 25004KT 10/M01 A301 RMK A01 T00991009  RH  047%=      5-min Rain = 0
KPD1 180032Z 25004KT 10/M01 A3011 RMK A01 T00971010  RH  047%=      5-min Rain = 0
KPD1 180033Z 25004KT 10/M01 A3011 RMK A01 T00971010  RH  047%=      5-min Rain = 0
KPD1 180034Z 25004KT 10/M01 A3011 RMK A01 T00961010  RH  048%=      5-min Rain = 0
KPD1 180035Z 25004KT 10/M01 A3011 RMK A01 T00951010  RH  048%=      5-min Rain = 0
KPD1 180036Z 25004KT 10/M01 A3011 RMK A01 T00951010  RH  048%=      5-min Rain = 0
KPD1 180037Z 24004KT 09/M01 A3011 RMK A01 T00941010  RH  048%=      5-min Rain = 0
KPD1 180038Z 24004KT 09/M01 A3011 RMK A01 T00941010  RH  048%=      5-min Rain = 0
KPD1 180039Z 25004KT 09/M01 A3011 RMK A01 T00931010  RH  048%=      5-min Rain = 0
KPD1 180040Z 25005KT 09/M01 A3011 RMK A01 T00931010  RH  049%=      5-min Rain = 0
KPD1 180041Z 25005KT 09/M01 A3011 RMK A01 T00921010  RH  049%=      5-min Rain = 0
KPD1 180042Z 25005KT 09/M01 A3011 RMK A01 T00921010  RH  049%=      5-min Rain = 0
KPD1 180043Z 25005KT 09/M01 A3011 RMK A01 T00921010  RH  049%=      5-min Rain = 0
KPD1 180044Z 25005KT 09/M01 A3011 RMK A01 T00921009  RH  049%=      5-min Rain = 0
KPD1 180045Z 25005KT 09/M01 A3011 RMK A01 T00921009  RH  049%=      5-min Rain = 0
KPD1 180046Z 24005KT 09/M01 A3011 RMK A01 T00921009  RH  049%=      5-min Rain = 0
KPD1 180047Z 24005KT 09/M01 A3011 RMK A01 T00921009  RH  049%=      5-min Rain = 0
KPD1 180048Z 24005KT 09/M01 A3011 RMK A01 T00911009  RH  049%=      5-min Rain = 0
KPD1 180049Z 24005KT 09/M01 A3011 RMK A01 T00911009  RH  050%=      5-min Rain = 0
KPD1 180050Z 24005KT 09/M01 A3011 RMK A01 T00911009  RH  050%=      5-min Rain = 0
KPD1 180051Z 24005KT 09/M01 A3011 RMK A01 T00911009  RH  050%=      5-min Rain = 0
KPD1 180052Z 24005KT 09/M01 A3011 RMK A01 T00911009  RH  050%=      5-min Rain = 0
KPD1 180053Z 24005KT 09/M01 A3011 RMK A01 T00911008  RH  050%=      5-min Rain = 0
KPD1 180054Z 24005KT 09/M01 A3011 RMK A01 T00911008  RH  050%=      5-min Rain = 0
KPD1 180055Z 24004KT 09/M01 A3011 RMK A01 T00901009  RH  050%=      5-min Rain = 0
KPD1 180056Z 24004KT 09/M01 A3011 RMK A01 T00901009  RH  050%=      5-min Rain = 0
KPD1 180057Z 24004KT 09/M01 A3011 RMK A01 T00901009  RH  050%=      5-min Rain = 0
KPD1 180058Z 24004KT 09/M01 A3011 RMK A01 T00891010  RH  050%=      5-min Rain = 0
KPD1 180059Z 24004KT 09/M01 A3011 RMK A01 T00881010  RH  050%=      5-min Rain = 0
KPD1 180100Z 24004KT 09/M01 A3011 RMK A01 T00881010  RH  050%=      5-min Rain = 0
KPD1 180101Z 24004KT 09/M01 A3011 RMK A01 T00881010  RH  050%=      5-min Rain = 0
KPD1 180102Z 24004KT 09/M01 A3011 RMK A01 T00871010  RH  051%=      5-min Rain = 0
KPD1 180103Z 23004KT 09/M01 A3011 RMK A01 T00871010  RH  051%=      5-min Rain = 0
KPD1 180104Z 23004KT 09/M01 A3011 RMK A01 T00871009  RH  051%=      5-min Rain = 0
KPD1 180105Z 23004KT 09/M01 A3011 RMK A01 T00881008  RH  051%=      5-min Rain = 0
KPD1 180106Z 22004KT 09/M01 A3011 RMK A01 T00871009  RH  051%=      5-min Rain = 0
KPD1 180107Z 22003KT 09/M01 A3011 RMK A01 T00871009  RH  051%=      5-min Rain = 0
KPD1 180108Z 22003KT 09/M01 A3011 RMK A01 T00871008  RH  051%=      5-min Rain = 0
KPD1 180109Z 22003KT 09/M01 A3011 RMK A01 T00871008  RH  051%=      5-min Rain = 0
KPD1 180110Z 22003KT 09/M01 A3011 RMK A01 T00871008  RH  051%=      5-min Rain = 0
KPD1 180111Z 22003KT 09/M01 A3011 RMK A01 T00881008  RH  051%=      5-min Rain = 0
KPD1 180112Z 22002KT 09/M01 A3011 RMK A01 T00871009  RH  051%=      5-min Rain = 0
KPD1 180113Z 21002KT 09/M01 A3011 RMK A01 T00871009  RH  051%=      5-min Rain = 0
KPD1 180114Z 21002KT 09/M01 A3012 RMK A01 T00861009  RH  051%=      5-min Rain = 0
KPD1 180115Z 21002KT 09/M01 A3012 RMK A01 T00851010  RH  052%=      5-min Rain = 0
KPD1 180116Z 21001KT 08/M01 A3012 RMK A01 T00841009  RH  052%=      5-min Rain = 0
KPD1 180117Z 21002KT 09/M01 A3012 RMK A01 T00861008  RH  052%=      5-min Rain = 0
KPD1 180118Z 21002KT 09/M01 A3012 RMK A01 T00871007  RH  051%=      5-min Rain = 0
KPD1 180119Z 21002KT 09/M01 A3012 RMK A01 T00881007  RH  051%=      5-min Rain = 0
KPD1 180120Z 22002KT 09/M01 A3012 RMK A01 T00891007  RH  051%=      5-min Rain = 0
KPD1 180121Z 22002KT 09/M01 A3012 RMK A01 T00891008  RH  051%=      5-min Rain = 0
KPD1 180122Z 22002KT 09/M01 A3012 RMK A01 T00891008  RH  051%=      5-min Rain = 0
KPD1 180123Z 21002KT 09/M01 A3012 RMK A01 T00881008  RH  051%=      5-min Rain = 0
KPD1 180124Z 21002KT 09/M01 A3012 RMK A01 T00881008  RH  051%=      5-min Rain = 0
KPD1 180125Z 21001KT 09/M01 A3012 RMK A01 T00881008  RH  051%=      5-min Rain = 0
KPD1 180126Z 21002KT 09/M01 A3012 RMK A01 T00881008  RH  051%=      5-min Rain = 0
KPD1 180127Z 21002KT 09/M01 A3012 RMK A01 T00871008  RH  051%=      5-min Rain = 0
KPD1 180128Z 21002KT 09/M01 A3012 RMK A01 T00871008  RH  051%=      5-min Rain = 0
KPD1 180129Z 21002KT 09/M01 A3012 RMK A01 T00871007  RH  051%=      5-min Rain = 0
KPD1 180130Z 21002KT 09/M01 A3012 RMK A01 T00871007  RH  052%=      5-min Rain = 0
KPD1 180131Z 21003KT 09/M01 A3012 RMK A01 T00871007  RH  052%=      5-min Rain = 0
KPD1 180132Z 21003KT 09/M01 A3012 RMK A01 T00871007  RH  052%=      5-min Rain = 0
KPD1 180133Z 22003KT 09/M01 A3012 RMK A01 T00871007  RH  052%=      5-min Rain = 0
KPD1 180134Z 22003KT 09/M01 A3011 RMK A01 T00871007  RH  051%=      5-min Rain = 0
KPD1 180135Z 22003KT 09/M01 A3011 RMK A01 T00871007  RH  051%=      5-min Rain = 0
KPD1 180136Z 21003KT 09/M01 A3011 RMK A01 T00871008  RH  051%=      5-min Rain = 0
KPD1 180137Z 21003KT 09/M01 A3011 RMK A01 T00861008  RH  051%=      5-min Rain = 0
KPD1 180138Z 21003KT 09/M01 A3011 RMK A01 T00861008  RH  052%=      5-min Rain = 0
KPD1 180139Z 21003KT 09/M01 A3011 RMK A01 T00861008  RH  052%=      5-min Rain = 0
KPD1 180140Z 21003KT 09/M01 A3011 RMK A01 T00851009  RH  052%=      5-min Rain = 0
KPD1 180141Z 21003KT 08/M01 A3011 RMK A01 T00831010  RH  052%=      5-min Rain = 0
KPD1 180142Z 20003KT 08/M01 A3011 RMK A01 T00811011  RH  052%=      5-min Rain = 0
KPD1 180143Z 20003KT 08/M01 A3011 RMK A01 T00801010  RH  053%=      5-min Rain = 0
KPD1 180144Z 20004KT 08/M01 A3011 RMK A01 T00791010  RH  053%=      5-min Rain = 0
KPD1 180145Z 20003KT 08/M01 A3011 RMK A01 T00781010  RH  054%=      5-min Rain = 0
KPD1 180146Z 20003KT 08/M01 A3011 RMK A01 T00771010  RH  054%=      5-min Rain = 0
KPD1 180147Z 21003KT 08/M01 A3011 RMK A01 T00761010  RH  054%=      5-min Rain = 0
KPD1 180148Z 20003KT 08/M01 A3011 RMK A01 T00751010  RH  055%=      5-min Rain = 0
KPD1 180149Z 19003KT 08/M01 A3011 RMK A01 T00751009  RH  055%=      5-min Rain = 0
KPD1 180150Z 17002KT 08/M01 A3011 RMK A01 T00761009  RH  055%=      5-min Rain = 0
KPD1 180151Z 17001KT 08/M01 A3011 RMK A01 T00781007  RH  055%=      5-min Rain = 0
KPD1 180152Z 18001KT 08/M01 A3012 RMK A01 T00811007  RH  054%=      5-min Rain = 0
KPD1 180153Z 19001KT 08/M01 A3012 RMK A01 T00821007  RH  054%=      5-min Rain = 0
KPD1 180154Z 20001KT 08/M01 A3012 RMK A01 T00831007  RH  053%=      5-min Rain = 0
KPD1 180155Z 22001KT 08/M01 A3012 RMK A01 T00831007  RH  053%=      5-min Rain = 0
KPD1 180156Z 23002KT 08/M01 A3012 RMK A01 T00841007  RH  053%=      5-min Rain = 0
KPD1 180157Z 22001KT 08/M01 A3012 RMK A01 T00841008  RH  053%=      5-min Rain = 0
KPD1 180158Z 22001KT 08/M01 A3012 RMK A01 T00841008  RH  053%=      5-min Rain = 0
KPD1 180159Z 21001KT 08/M01 A3012 RMK A01 T00831008  RH  053%=      5-min Rain = 0
KPD1 180200Z 20002KT 08/M01 A3012 RMK A01 T00821009  RH  053%=      5-min Rain = 0
KPD1 180201Z 19002KT 08/M01 A3012 RMK A01 T00811008  RH  053%=      5-min Rain = 0
KPD1 180202Z 19002KT 08/M01 A3012 RMK A01 T00811008  RH  053%=      5-min Rain = 0
KPD1 180203Z 19002KT 08/M01 A3012 RMK A01 T00801009  RH  053%=      5-min Rain = 0
KPD1 180204Z 18002KT 08/M01 A3012 RMK A01 T00801009  RH  054%=      5-min Rain = 0
KPD1 180205Z 19002KT 08/M01 A3012 RMK A01 T00791009  RH  054%=      5-min Rain = 0
KPD1 180206Z 19001KT 08/M01 A3012 RMK A01 T00781009  RH  054%=      5-min Rain = 0
KPD1 180207Z 20002KT 08/M01 A3012 RMK A01 T00771009  RH  054%=      5-min Rain = 0
KPD1 180208Z 20001KT 08/M01 A3012 RMK A01 T00761009  RH  055%=      5-min Rain = 0
KPD1 180209Z 19002KT 08/M01 A3012 RMK A01 T00751009  RH  055%=      5-min Rain = 0
KPD1 180210Z 19002KT 08/M01 A3012 RMK A01 T00751009  RH  055%=      5-min Rain = 0
KPD1 180211Z 19002KT 08/M01 A3012 RMK A01 T00751008  RH  056%=      5-min Rain = 0
KPD1 180212Z 20002KT 08/M01 A3012 RMK A01 T00761007  RH  056%=      5-min Rain = 0
KPD1 180213Z 21003KT 08/M01 A3012 RMK A01 T00781006  RH  055%=      5-min Rain = 0
KPD1 180214Z 22003KT 08/M01 A3012 RMK A01 T00791007  RH  055%=      5-min Rain = 0
KPD1 180215Z 22003KT 08/M01 A3012 RMK A01 T00791007  RH  054%=      5-min Rain = 0
KPD1 180216Z 22003KT 08/M01 A3012 RMK A01 T00801007  RH  054%=      5-min Rain = 0
KPD1 180217Z 21003KT 08/M01 A3012 RMK A01 T00791007  RH  055%=      5-min Rain = 0
KPD1 180218Z 22003KT 08/M01 A3012 RMK A01 T00781007  RH  055%=      5-min Rain = 0
KPD1 180219Z 21003KT 08/M01 A3012 RMK A01 T00771007  RH  055%=      5-min Rain = 0
KPD1 180220Z 21003KT 08/M01 A3012 RMK A01 T00761007  RH  055%=      5-min Rain = 0
KPD1 180221Z 21003KT 08/M01 A3012 RMK A01 T00751007  RH  056%=      5-min Rain = 0
KPD1 180222Z 21003KT 08/M01 A3011 RMK A01 T00751007  RH  056%=      5-min Rain = 0
KPD1 180223Z 21003KT 08/M01 A3011 RMK A01 T00751007  RH  056%=      5-min Rain = 0
KPD1 180224Z 22003KT 08/M01 A3011 RMK A01 T00751007  RH  056%=      5-min Rain = 0
KPD1 180225Z 22004KT 07/M01 A3011 RMK A01 T00741007  RH  056%=      5-min Rain = 0
KPD1 180226Z 22004KT 07/M01 A3011 RMK A01 T00741007  RH  056%=      5-min Rain = 0
KPD1 180227Z 23005KT 07/M01 A3011 RMK A01 T00741007  RH  057%=      5-min Rain = 0
KPD1 180228Z 23005KT 07/M01 A3011 RMK A01 T00741007  RH  057%=      5-min Rain = 0
KPD1 180229Z 23005KT 07/M01 A3011 RMK A01 T00741007  RH  057%=      5-min Rain = 0
KPD1 180230Z 23004KT 07/M01 A3011 RMK A01 T00741007  RH  057%=      5-min Rain = 0
KPD1 180231Z 23003KT 07/M01 A3011 RMK A01 T00741007  RH  057%=      5-min Rain = 0
KPD1 180232Z 23003KT 07/M01 A3011 RMK A01 T00741007  RH  057%=      5-min Rain = 0
KPD1 180233Z 23003KT 07/M01 A3011 RMK A01 T00741006  RH  057%=      5-min Rain = 0
KPD1 180234Z 22003KT 07/M01 A3011 RMK A01 T00741007  RH  057%=      5-min Rain = 0
KPD1 180235Z 22003KT 08/M01 A3011 RMK A01 T00751006  RH  057%=      5-min Rain = 0
KPD1 180236Z 22003KT 07/M01 A3011 RMK A01 T00741006  RH  057%=      5-min Rain = 0
KPD1 180237Z 21003KT 07/M01 A3011 RMK A01 T00741006  RH  057%=      5-min Rain = 0
KPD1 180238Z 21003KT 07/M01 A3011 RMK A01 T00741006  RH  057%=      5-min Rain = 0
KPD1 180239Z 21003KT 07/M01 A3011 RMK A01 T00741006  RH  057%=      5-min Rain = 0
KPD1 180240Z 21003KT 07/M01 A3011 RMK A01 T00741006  RH  057%=      5-min Rain = 0
KPD1 180241Z 21004KT 07/M01 A3011 RMK A01 T00731006  RH  057%=      5-min Rain = 0
KPD1 180242Z 21004KT 07/M01 A3011 RMK A01 T00731006  RH  057%=      5-min Rain = 0
KPD1 180243Z 21004KT 07/M01 A3011 RMK A01 T00731006  RH  057%=      5-min Rain = 0
KPD1 180244Z 22004KT 07/M01 A3011 RMK A01 T00731006  RH  057%=      5-min Rain = 0
KPD1 180245Z 22004KT 07/M01 A3011 RMK A01 T00731006  RH  057%=      5-min Rain = 0
KPD1 180246Z 22003KT 07/M01 A3011 RMK A01 T00731006  RH  057%=      5-min Rain = 0
KPD1 180247Z 22003KT 07/M01 A3011 RMK A01 T00721006  RH  057%=      5-min Rain = 0
KPD1 180248Z 22003KT 07/M01 A3011 RMK A01 T00721006  RH  057%=      5-min Rain = 0
KPD1 180249Z 22004KT 07/M01 A3011 RMK A01 T00711007  RH  058%=      5-min Rain = 0
KPD1 180250Z 22004KT 07/M01 A3012 RMK A01 T00701008  RH  058%=      5-min Rain = 0
KPD1 180251Z 22004KT 07/M01 A3012 RMK A01 T00691007  RH  058%=      5-min Rain = 0
KPD1 180252Z 23004KT 07/M01 A3012 RMK A01 T00691007  RH  059%=      5-min Rain = 0
KPD1 180253Z 23004KT 07/M01 A3012 RMK A01 T00691007  RH  059%=      5-min Rain = 0
KPD1 180254Z 23004KT 07/M01 A3012 RMK A01 T00701006  RH  059%=      5-min Rain = 0
KPD1 180255Z 22004KT 07/M01 A3012 RMK A01 T00701006  RH  058%=      5-min Rain = 0
KPD1 180256Z 22004KT 07/M01 A3012 RMK A01 T00701006  RH  058%=      5-min Rain = 0
KPD1 180257Z 22004KT 07/M01 A3012 RMK A01 T00701006  RH  058%=      5-min Rain = 0
KPD1 180258Z 22005KT 07/M01 A3012 RMK A01 T00701006  RH  058%=      5-min Rain = 0
KPD1 180259Z 23005KT 07/M01 A3012 RMK A01 T00701006  RH  059%=      5-min Rain = 0
KPD1 180300Z 23004KT 07/M01 A3012 RMK A01 T00701006  RH  058%=      5-min Rain = 0
KPD1 180301Z 23004KT 07/M01 A3012 RMK A01 T00711006  RH  058%=      5-min Rain = 0
KPD1 180302Z 23004KT 07/M01 A3012 RMK A01 T00711005  RH  058%=      5-min Rain = 0
KPD1 180303Z 23003KT 07/M01 A3012 RMK A01 T00721005  RH  058%=      5-min Rain = 0
KPD1 180304Z 23004KT 07/M01 A3012 RMK A01 T00721005  RH  058%=      5-min Rain = 0
KPD1 180305Z 23004KT 07/M01 A3012 RMK A01 T00731005  RH  058%=      5-min Rain = 0
KPD1 180306Z 23004KT 07/M01 A3012 RMK A01 T00731005  RH  058%=      5-min Rain = 0
KPD1 180307Z 23005KT 07/M01 A3012 RMK A01 T00741005  RH  057%=      5-min Rain = 0
KPD1 180308Z 22005KT 07/M01 A3012 RMK A01 T00731006  RH  057%=      5-min Rain = 0
KPD1 180309Z 22005KT 07/M01 A3012 RMK A01 T00731006  RH  057%=      5-min Rain = 0
KPD1 180310Z 22005KT 07/M01 A3012 RMK A01 T00731006  RH  057%=      5-min Rain = 0
KPD1 180311Z 22005KT 07/M01 A3012 RMK A01 T00741006  RH  057%=      5-min Rain = 0
KPD1 180312Z 22005KT 07/M01 A3012 RMK A01 T00741005  RH  057%=      5-min Rain = 0
KPD1 180313Z 21005KT 07/M01 A3012 RMK A01 T00741006  RH  057%=      5-min Rain = 0
KPD1 180314Z 21005KT 07/M01 A3012 RMK A01 T00731006  RH  057%=      5-min Rain = 0
KPD1 180315Z 21004KT 07/M01 A3012 RMK A01 T00721007  RH  057%=      5-min Rain = 0
KPD1 180316Z 21004KT 07/M01 A3012 RMK A01 T00721006  RH  058%=      5-min Rain = 0
KPD1 180317Z 21003KT 07/M01 A3012 RMK A01 T00721006  RH  058%=      5-min Rain = 0
KPD1 180318Z 21003KT 07/M01 A3012 RMK A01 T00711006  RH  058%=      5-min Rain = 0
KPD1 180319Z 21004KT 07/M01 A3012 RMK A01 T00711006  RH  058%=      5-min Rain = 0
KPD1 180320Z 21004KT 07/M01 A3012 RMK A01 T00701006  RH  058%=      5-min Rain = 0
KPD1 180321Z 21004KT 07/M01 A3012 RMK A01 T00701006  RH  058%=      5-min Rain = 0
KPD1 180322Z 21005KT 07/M01 A3012 RMK A01 T00691007  RH  059%=      5-min Rain = 0
KPD1 180323Z 20004KT 07/M01 A3012 RMK A01 T00681007  RH  059%=      5-min Rain = 0
KPD1 180324Z 20004KT 07/M01 A3012 RMK A01 T00671007  RH  059%=      5-min Rain = 0
KPD1 180325Z 20004KT 07/M01 A3012 RMK A01 T00661007  RH  059%=      5-min Rain = 0
KPD1 180326Z 20004KT 07/M01 A3012 RMK A01 T00651008  RH  060%=      5-min Rain = 0
KPD1 180327Z 19004KT 07/M01 A3012 RMK A01 T00651007  RH  060%=      5-min Rain = 0
KPD1 180328Z 19003KT 07/M01 A3012 RMK A01 T00651007  RH  060%=      5-min Rain = 0
KPD1 180329Z 20004KT 07/M01 A3012 RMK A01 T00651006  RH  060%=      5-min Rain = 0
KPD1 180330Z 20004KT 06/M01 A3012 RMK A01 T00641007  RH  060%=      5-min Rain = 0
KPD1 180331Z 20005KT 07/M01 A3012 RMK A01 T00651007  RH  060%=      5-min Rain = 0
KPD1 180332Z 20005KT 07/M01 A3012 RMK A01 T00651007  RH  060%=      5-min Rain = 0
KPD1 180333Z 20005KT 07/M01 A3012 RMK A01 T00661007  RH  060%=      5-min Rain = 0
KPD1 180334Z 20005KT 07/M01 A3012 RMK A01 T00651007  RH  060%=      5-min Rain = 0
KPD1 180335Z 20005KT 07/M01 A3012 RMK A01 T00651007  RH  060%=      5-min Rain = 0
KPD1 180336Z 20005KT 06/M01 A3011 RMK A01 T00641008  RH  060%=      5-min Rain = 0
KPD1 180337Z 20005KT 06/M01 A3011 RMK A01 T00631008  RH  060%=      5-min Rain = 0
KPD1 180338Z 20005KT 06/M01 A3011 RMK A01 T00621008  RH  061%=      5-min Rain = 0
KPD1 180339Z 20005KT 06/M01 A3011 RMK A01 T00621008  RH  061%=      5-min Rain = 0
KPD1 180340Z 20005KT 06/M01 A3011 RMK A01 T00611008  RH  061%=      5-min Rain = 0
KPD1 180341Z 20005KT 06/M01 A3011 RMK A01 T00601008  RH  061%=      5-min Rain = 0
KPD1 180342Z 21005KT 06/M01 A3011 RMK A01 T00611008  RH  061%=      5-min Rain = 0
KPD1 180343Z 21005KT 06/M01 A3011 RMK A01 T00601008  RH  062%=      5-min Rain = 0
KPD1 180344Z 21005KT 06/M01 A3011 RMK A01 T00601008  RH  062%=      5-min Rain = 0
KPD1 180345Z 21005KT 06/M01 A3011 RMK A01 T00591008  RH  062%=      5-min Rain = 0
KPD1 180346Z 21005KT 06/M01 A3011 RMK A01 T00601008  RH  062%=      5-min Rain = 0
KPD1 180347Z 21005KT 06/M01 A3011 RMK A01 T00601008  RH  062%=      5-min Rain = 0
KPD1 180348Z 21005KT 06/M01 A3011 RMK A01 T00621006  RH  062%=      5-min Rain = 0
KPD1 180349Z 21006KT 06/M01 A3011 RMK A01 T00631006  RH  061%=      5-min Rain = 0
KPD1 180350Z 21006KT 06/M01 A3011 RMK A01 T00641006  RH  061%=      5-min Rain = 0
KPD1 180351Z 21006KT 06/M01 A3011 RMK A01 T00641007  RH  061%=      5-min Rain = 0
KPD1 180352Z 21005KT 06/M01 A3011 RMK A01 T00641007  RH  061%=      5-min Rain = 0
KPD1 180353Z 22006KT 06/M01 A3011 RMK A01 T00631007  RH  061%=      5-min Rain = 0
KPD1 180354Z 22005KT 06/M01 A3011 RMK A01 T00631007  RH  061%=      5-min Rain = 0
KPD1 180355Z 22006KT 06/M01 A3011 RMK A01 T00631007  RH  061%=      5-min Rain = 0
KPD1 180356Z 22006KT 06/M01 A3011 RMK A01 T00641007  RH  061%=      5-min Rain = 0
KPD1 180357Z 21005KT 07/M01 A3011 RMK A01 T00651006  RH  061%=      5-min Rain = 0
KPD1 180358Z 21005KT 07/M00 A3011 RMK A01 T00671004  RH  060%=      5-min Rain = 0
KPD1 180359Z 21005KT 07/M01 A3011 RMK A01 T00681005  RH  060%=      5-min Rain = 0
KPD1 180400Z 21004KT 07/M01 A3011 RMK A01 T00691005  RH  059%=      5-min Rain = 0
KPD1 180401Z 21004KT 07/M01 A3011 RMK A01 T00691005  RH  059%=      5-min Rain = 0
KPD1 180402Z 21004KT 07/M00 A301 RMK A01 T00701004  RH  059%=      5-min Rain = 0
KPD1 180403Z 21004KT 07/M01 A301 RMK A01 T00701005  RH  059%=      5-min Rain = 0
KPD1 180404Z 21004KT 07/M01 A301 RMK A01 T00701005  RH  059%=      5-min Rain = 0
KPD1 180405Z 21004KT 07/M01 A301 RMK A01 T00701005  RH  059%=      5-min Rain = 0
KPD1 180406Z 21003KT 07/M01 A301 RMK A01 T00711005  RH  059%=      5-min Rain = 0
KPD1 180407Z 21004KT 07/M01 A301 RMK A01 T00701005  RH  059%=      5-min Rain = 0
KPD1 180408Z 20004KT 07/M01 A301 RMK A01 T00701005  RH  059%=      5-min Rain = 0
KPD1 180409Z 21004KT 07/M01 A301 RMK A01 T00691006  RH  059%=      5-min Rain = 0
KPD1 180410Z 21004KT 07/M01 A301 RMK A01 T00681005  RH  059%=      5-min Rain = 0
KPD1 180411Z 20004KT 07/M01 A301 RMK A01 T00681006  RH  060%=      5-min Rain = 0
KPD1 180412Z 20004KT 07/M01 A301 RMK A01 T00671006  RH  060%=      5-min Rain = 0
KPD1 180413Z 21004KT 07/M01 A301 RMK A01 T00651007  RH  060%=      5-min Rain = 0
KPD1 180414Z 20004KT 07/M01 A301 RMK A01 T00651006  RH  061%=      5-min Rain = 0
KPD1 180415Z 20004KT 06/M01 A301 RMK A01 T00641006  RH  061%=      5-min Rain = 0
KPD1 180416Z 21004KT 06/M01 A301 RMK A01 T00631007  RH  061%=      5-min Rain = 0
KPD1 180417Z 20004KT 06/M01 A301 RMK A01 T00621006  RH  061%=      5-min Rain = 0
KPD1 180418Z 20004KT 06/M01 A301 RMK A01 T00621006  RH  062%=      5-min Rain = 0
KPD1 180419Z 21003KT 06/M01 A301 RMK A01 T00621006  RH  062%=      5-min Rain = 0
KPD1 180420Z 21004KT 06/M01 A301 RMK A01 T00631005  RH  062%=      5-min Rain = 0
KPD1 180421Z 22004KT 06/M01 A301 RMK A01 T00621006  RH  062%=      5-min Rain = 0
KPD1 180422Z 21005KT 06/M01 A301 RMK A01 T00621006  RH  062%=      5-min Rain = 0
KPD1 180423Z 22005KT 06/M01 A301 RMK A01 T00621006  RH  062%=      5-min Rain = 0
KPD1 180424Z 22005KT 06/M01 A301 RMK A01 T00621006  RH  062%=      5-min Rain = 0
KPD1 180425Z 23005KT 06/M01 A301 RMK A01 T00611006  RH  062%=      5-min Rain = 0
KPD1 180426Z 22005KT 06/M01 A301 RMK A01 T00611006  RH  062%=      5-min Rain = 0
KPD1 180427Z 22006KT 06/M01 A301 RMK A01 T00611006  RH  062%=      5-min Rain = 0
KPD1 180428Z 23006KT 06/M01 A3009 RMK A01 T00621005  RH  062%=      5-min Rain = 0
KPD1 180429Z 22006KT 06/M01 A3009 RMK A01 T00621005  RH  062%=      5-min Rain = 0
KPD1 180430Z 23005KT 06/M01 A3009 RMK A01 T00631005  RH  062%=      5-min Rain = 0
KPD1 180431Z 23005KT 06/M01 A3009 RMK A01 T00641005  RH  061%=      5-min Rain = 0
KPD1 180432Z 23005KT 06/M01 A3009 RMK A01 T00641006  RH  061%=      5-min Rain = 0
KPD1 180433Z 23005KT 06/M01 A3009 RMK A01 T00631006  RH  061%=      5-min Rain = 0
KPD1 180434Z 23006KT 06/M01 A3009 RMK A01 T00631006  RH  062%=      5-min Rain = 0
KPD1 180435Z 22006KT 06/M01 A3009 RMK A01 T00631005  RH  061%=      5-min Rain = 0
KPD1 180436Z 23005KT 06/M01 A3009 RMK A01 T00641005  RH  061%=      5-min Rain = 0
KPD1 180437Z 22005KT 06/M01 A3009 RMK A01 T00641005  RH  061%=      5-min Rain = 0
KPD1 180438Z 22005KT 07/M01 A3009 RMK A01 T00651005  RH  061%=      5-min Rain = 0
KPD1 180439Z 22004KT 07/M01 A3009 RMK A01 T00651005  RH  061%=      5-min Rain = 0
KPD1 180440Z 22004KT 07/M01 A3009 RMK A01 T00661005  RH  061%=      5-min Rain = 0
KPD1 180441Z 22004KT 07/M01 A3009 RMK A01 T00661005  RH  061%=      5-min Rain = 0
KPD1 180442Z 22004KT 07/M00 A3009 RMK A01 T00671004  RH  060%=      5-min Rain = 0
KPD1 180443Z 22004KT 07/M00 A3009 RMK A01 T00681004  RH  060%=      5-min Rain = 0
KPD1 180444Z 23004KT 07/M01 A3009 RMK A01 T00671005  RH  060%=      5-min Rain = 0
KPD1 180445Z 22004KT 07/M01 A3009 RMK A01 T00671005  RH  060%=      5-min Rain = 0
KPD1 180446Z 22005KT 07/M01 A3009 RMK A01 T00671005  RH  060%=      5-min Rain = 0
KPD1 180447Z 23004KT 07/M01 A3009 RMK A01 T00661006  RH  060%=      5-min Rain = 0
KPD1 180448Z 22005KT 07/M01 A3008 RMK A01 T00651006  RH  061%=      5-min Rain = 0
KPD1 180449Z 22005KT 06/M01 A3008 RMK A01 T00641006  RH  061%=      5-min Rain = 0
KPD1 180450Z 22005KT 06/M01 A3008 RMK A01 T00641006  RH  061%=      5-min Rain = 0
KPD1 180451Z 22005KT 06/M01 A3008 RMK A01 T00631006  RH  061%=      5-min Rain = 0
KPD1 180452Z 22005KT 06/M01 A3008 RMK A01 T00631005  RH  061%=      5-min Rain = 0
KPD1 180453Z 22006KT 06/M01 A3008 RMK A01 T00631006  RH  061%=      5-min Rain = 0
KPD1 180454Z 22006KT 06/M01 A3008 RMK A01 T00621006  RH  062%=      5-min Rain = 0
KPD1 180455Z 22006KT 06/M01 A3008 RMK A01 T00621006  RH  062%=      5-min Rain = 0
KPD1 180456Z 22006KT 06/M01 A3008 RMK A01 T00611006  RH  062%=      5-min Rain = 0
KPD1 180457Z 22005KT 06/M01 A3008 RMK A01 T00611006  RH  062%=      5-min Rain = 0
KPD1 180458Z 22005KT 06/M01 A3008 RMK A01 T00611006  RH  062%=      5-min Rain = 0
KPD1 180459Z 22005KT 06/M01 A3008 RMK A01 T00611006  RH  063%=      5-min Rain = 0
KPD1 180500Z 22005KT 06/M01 A3008 RMK A01 T00601006  RH  063%=      5-min Rain = 0
KPD1 180501Z 22006KT 06/M01 A3008 RMK A01 T00601005  RH  063%=      5-min Rain = 0
KPD1 180502Z 22006KT 06/M01 A3008 RMK A01 T00591005  RH  063%=      5-min Rain = 0
KPD1 180503Z 22006KT 06/M01 A3008 RMK A01 T00601005  RH  063%=      5-min Rain = 0
KPD1 180504Z 21006KT 06/M01 A3008 RMK A01 T00591005  RH  063%=      5-min Rain = 0
KPD1 180505Z 21006KT 06/M01 A3008 RMK A01 T00591005  RH  063%=      5-min Rain = 0
KPD1 180506Z 21006KT 06/M01 A3008 RMK A01 T00581005  RH  064%=      5-min Rain = 0
KPD1 180507Z 22006KT 06/M01 A3008 RMK A01 T00581005  RH  064%=      5-min Rain = 0
KPD1 180508Z 21006KT 06/M01 A3007 RMK A01 T00571005  RH  064%=      5-min Rain = 0
KPD1 180509Z 21006KT 06/M01 A3007 RMK A01 T00571005  RH  064%=      5-min Rain = 0
KPD1 180510Z 21007KT 06/M00 A3007 RMK A01 T00571004  RH  065%=      5-min Rain = 0
KPD1 180511Z 21007KT 06/M00 A3007 RMK A01 T00571004  RH  065%=      5-min Rain = 0
KPD1 180512Z 21007KT 06/M00 A3007 RMK A01 T00581003  RH  065%=      5-min Rain = 0
KPD1 180513Z 21007KT 06/M00 A3007 RMK A01 T00591003  RH  064%=      5-min Rain = 0
KPD1 180514Z 21007KT 06/M00 A3007 RMK A01 T00601003  RH  064%=      5-min Rain = 0
KPD1 180515Z 21007KT 06/M00 A3007 RMK A01 T00601003  RH  064%=      5-min Rain = 0
KPD1 180516Z 20008KT 06/M00 A3007 RMK A01 T00601003  RH  064%=      5-min Rain = 0
KPD1 180517Z 21008KT 06/M00 A3007 RMK A01 T00621002  RH  064%=      5-min Rain = 0
KPD1 180518Z 20008KT 06/M00 A3007 RMK A01 T00621002  RH  063%=      5-min Rain = 0
KPD1 180519Z 21008KT 06/M00 A3007 RMK A01 T00631001  RH  063%=      5-min Rain = 0
KPD1 180520Z 21008KT 06/M00 A3007 RMK A01 T00641001  RH  063%=      5-min Rain = 0
KPD1 180521Z 21008KT 07/M00 A3007 RMK A01 T00651001  RH  063%=      5-min Rain = 0
KPD1 180522Z 21008KT 07/M00 A3007 RMK A01 T00661001  RH  062%=      5-min Rain = 0
KPD1 180523Z 21008KT 07/M00 A3007 RMK A01 T00671001  RH  062%=      5-min Rain = 0
KPD1 180524Z 21008KT 07/M00 A3007 RMK A01 T00681001  RH  062%=      5-min Rain = 0
KPD1 180525Z 20008KT 07/M00 A3007 RMK A01 T00691001  RH  061%=      5-min Rain = 0
KPD1 180526Z 20008KT 07/M00 A3007 RMK A01 T00701001  RH  061%=      5-min Rain = 0
KPD1 180527Z 21008KT 07/M00 A3007 RMK A01 T00701001  RH  061%=      5-min Rain = 0
KPD1 180528Z 21008KT 07/M00 A3007 RMK A01 T00691001  RH  061%=      5-min Rain = 0
KPD1 180529Z 21007KT 07/M00 A3007 RMK A01 T00701001  RH  060%=      5-min Rain = 0
KPD1 180530Z 20007KT 07/M00 A3007 RMK A01 T00711001  RH  060%=      5-min Rain = 0
KPD1 180531Z 20007KT 07/M00 A3007 RMK A01 T00711001  RH  060%=      5-min Rain = 0
KPD1 180532Z 20008KT 07/M00 A3007 RMK A01 T00711001  RH  060%=      5-min Rain = 0
KPD1 180533Z 21007KT 07/M00 A3007 RMK A01 T00711001  RH  060%=      5-min Rain = 0
KPD1 180534Z 20007KT 07/M00 A3007 RMK A01 T00711001  RH  060%=      5-min Rain = 0
KPD1 180535Z 20008KT 07/M00 A3006 RMK A01 T00711001  RH  060%=      5-min Rain = 0
KPD1 180536Z 20008KT 07/M00 A3006 RMK A01 T00711001  RH  060%=      5-min Rain = 0
KPD1 180537Z 20008KT 07/M00 A3006 RMK A01 T00711002  RH  060%=      5-min Rain = 0
KPD1 180538Z 20009KT 07/M00 A3006 RMK A01 T00711001  RH  060%=      5-min Rain = 0
KPD1 180539Z 21008KT 07/M00 A3006 RMK A01 T00711001  RH  060%=      5-min Rain = 0
KPD1 180540Z 21008KT 07/M00 A3006 RMK A01 T00721001  RH  060%=      5-min Rain = 0
KPD1 180541Z 21008KT 07/M00 A3006 RMK A01 T00721001  RH  060%=      5-min Rain = 0
KPD1 180542Z 20008KT 07/M00 A3006 RMK A01 T00721001  RH  060%=      5-min Rain = 0
KPD1 180543Z 20008KT 07/M00 A3006 RMK A01 T00721001  RH  060%=      5-min Rain = 0
KPD1 180544Z 20007KT 07/M00 A3006 RMK A01 T00721001  RH  060%=      5-min Rain = 0
KPD1 180545Z 20008KT 07/M00 A3006 RMK A01 T00711001  RH  060%=      5-min Rain = 0
KPD1 180546Z 21008KT 07/M00 A3006 RMK A01 T00711001  RH  060%=      5-min Rain = 0
KPD1 180547Z 20007KT 07/M00 A3006 RMK A01 T00711001  RH  060%=      5-min Rain = 0
KPD1 180548Z 21008KT 07/M00 A3006 RMK A01 T00711001  RH  060%=      5-min Rain = 0
KPD1 180549Z 21008KT 07/M00 A3006 RMK A01 T00711001  RH  060%=      5-min Rain = 0
KPD1 180550Z 20007KT 07/M00 A3006 RMK A01 T00711001  RH  060%=      5-min Rain = 0
KPD1 180551Z 21008KT 07/M00 A3006 RMK A01 T00701001  RH  060%=      5-min Rain = 0
KPD1 180552Z 20007KT 07/M00 A3006 RMK A01 T00701001  RH  060%=      5-min Rain = 0
KPD1 180553Z 20007KT 07/M00 A3006 RMK A01 T00701001  RH  060%=      5-min Rain = 0
KPD1 180554Z 20008KT 07/M00 A3006 RMK A01 T00701001  RH  061%=      5-min Rain = 0
KPD1 180555Z 20008KT 07/M00 A3006 RMK A01 T00701001  RH  061%=      5-min Rain = 0
KPD1 180556Z 20009KT 07/M00 A3006 RMK A01 T00701001  RH  061%=      5-min Rain = 0
KPD1 180557Z 20008KT 07/M00 A3006 RMK A01 T00701001  RH  061%=      5-min Rain = 0
KPD1 180558Z 20008KT 07/M00 A3006 RMK A01 T00701001  RH  061%=      5-min Rain = 0
KPD1 180559Z 20008KT 07/M00 A3006 RMK A01 T00701001  RH  061%=      5-min Rain = 0

Page generated in 0.1422 seconds.